<?xml version="1.0" encoding="UTF-8" standalone="no" ?>
<gpx xmlns="http://www.topografix.com/GPX/1/1" xmlns:xsi="http://www.w3.org/2001/XMLSchema-instance" xsi:schemaLocation="http://www.topografix.com/GPX/1/1 http://www.topografix.com/GPX/1/1/gpx.xsd" version="1.1" creator="VisuGPX - https://www.visugpx.com">
  <metadata>
    <name>Sortie_cyclo_24_05_2013 (autour de Lannion - 35 kms)</name>
    <desc><![CDATA[Petit circuit de 35 kms.]]></desc>
  </metadata>
  <trk>
    <name><![CDATA[24-MAI-13 17:42:02]]></name>
    <trkseg>
      <trkpt lat="48.74681" lon="-3.45503">
        <ele>64.07</ele>
        <time>2013-05-22T15:38:59Z</time>
      </trkpt>
      <trkpt lat="48.74682" lon="-3.45504">
        <ele>63.58</ele>
        <time>2013-05-22T15:39:00Z</time>
      </trkpt>
      <trkpt lat="48.7469" lon="-3.45501">
        <ele>63.58</ele>
        <time>2013-05-22T15:39:10Z</time>
      </trkpt>
      <trkpt lat="48.74698" lon="-3.45499">
        <ele>64.07</ele>
        <time>2013-05-22T15:39:18Z</time>
      </trkpt>
      <trkpt lat="48.74701" lon="-3.45505">
        <ele>63.58</ele>
        <time>2013-05-22T15:39:30Z</time>
      </trkpt>
      <trkpt lat="48.74701" lon="-3.45502">
        <ele>63.58</ele>
        <time>2013-05-22T15:39:40Z</time>
      </trkpt>
      <trkpt lat="48.74695" lon="-3.45501">
        <ele>63.1</ele>
        <time>2013-05-22T15:39:47Z</time>
      </trkpt>
      <trkpt lat="48.74693" lon="-3.45507">
        <ele>63.1</ele>
        <time>2013-05-22T15:39:49Z</time>
      </trkpt>
      <trkpt lat="48.74691" lon="-3.45508">
        <ele>63.58</ele>
        <time>2013-05-22T15:39:53Z</time>
      </trkpt>
      <trkpt lat="48.74685" lon="-3.45505">
        <ele>63.58</ele>
        <time>2013-05-22T15:39:59Z</time>
      </trkpt>
      <trkpt lat="48.74684" lon="-3.45499">
        <ele>64.07</ele>
        <time>2013-05-22T15:40:10Z</time>
      </trkpt>
      <trkpt lat="48.74681" lon="-3.45498">
        <ele>64.07</ele>
        <time>2013-05-22T15:40:33Z</time>
      </trkpt>
      <trkpt lat="48.74682" lon="-3.45501">
        <ele>64.07</ele>
        <time>2013-05-22T15:40:57Z</time>
      </trkpt>
      <trkpt lat="48.74686" lon="-3.45498">
        <ele>64.07</ele>
        <time>2013-05-22T15:41:18Z</time>
      </trkpt>
      <trkpt lat="48.74689" lon="-3.45499">
        <ele>64.07</ele>
        <time>2013-05-22T15:41:49Z</time>
      </trkpt>
      <trkpt lat="48.74695" lon="-3.45498">
        <ele>64.55</ele>
        <time>2013-05-22T15:42:14Z</time>
      </trkpt>
      <trkpt lat="48.74696" lon="-3.45498">
        <ele>66.47</ele>
        <time>2013-05-22T15:42:19Z</time>
      </trkpt>
      <trkpt lat="48.74694" lon="-3.45497">
        <ele>66.95</ele>
        <time>2013-05-22T15:42:43Z</time>
      </trkpt>
      <trkpt lat="48.74724" lon="-3.45471">
        <ele>44.84</ele>
        <time>2013-05-24T14:20:47Z</time>
      </trkpt>
      <trkpt lat="48.74722" lon="-3.4547">
        <ele>45.32</ele>
        <time>2013-05-24T14:20:48Z</time>
      </trkpt>
      <trkpt lat="48.747" lon="-3.45478">
        <ele>45.32</ele>
        <time>2013-05-24T14:20:59Z</time>
      </trkpt>
      <trkpt lat="48.74686" lon="-3.45475">
        <ele>45.32</ele>
        <time>2013-05-24T14:21:18Z</time>
      </trkpt>
      <trkpt lat="48.74674" lon="-3.45477">
        <ele>45.8</ele>
        <time>2013-05-24T14:21:40Z</time>
      </trkpt>
      <trkpt lat="48.74665" lon="-3.45473">
        <ele>45.32</ele>
        <time>2013-05-24T14:22:01Z</time>
      </trkpt>
      <trkpt lat="48.74662" lon="-3.45461">
        <ele>44.84</ele>
        <time>2013-05-24T14:22:20Z</time>
      </trkpt>
      <trkpt lat="48.74668" lon="-3.45459">
        <ele>45.8</ele>
        <time>2013-05-24T14:22:30Z</time>
      </trkpt>
      <trkpt lat="48.74674" lon="-3.45446">
        <ele>42.44</ele>
        <time>2013-05-24T14:22:42Z</time>
      </trkpt>
      <trkpt lat="48.74712" lon="-3.45359">
        <ele>42.92</ele>
        <time>2013-05-24T14:24:37Z</time>
      </trkpt>
      <trkpt lat="48.74705" lon="-3.45389">
        <ele>43.4</ele>
        <time>2013-05-24T14:24:47Z</time>
      </trkpt>
      <trkpt lat="48.74695" lon="-3.45407">
        <ele>42.44</ele>
        <time>2013-05-24T14:25:04Z</time>
      </trkpt>
      <trkpt lat="48.74683" lon="-3.45435">
        <ele>42.92</ele>
        <time>2013-05-24T14:25:16Z</time>
      </trkpt>
      <trkpt lat="48.74664" lon="-3.45456">
        <ele>42.92</ele>
        <time>2013-05-24T14:25:24Z</time>
      </trkpt>
      <trkpt lat="48.7462" lon="-3.45424">
        <ele>39.55</ele>
        <time>2013-05-24T14:25:34Z</time>
      </trkpt>
      <trkpt lat="48.74615" lon="-3.45423">
        <ele>38.59</ele>
        <time>2013-05-24T14:25:35Z</time>
      </trkpt>
      <trkpt lat="48.7461" lon="-3.45422">
        <ele>39.07</ele>
        <time>2013-05-24T14:25:36Z</time>
      </trkpt>
      <trkpt lat="48.74605" lon="-3.45423">
        <ele>38.59</ele>
        <time>2013-05-24T14:25:37Z</time>
      </trkpt>
      <trkpt lat="48.746" lon="-3.45427">
        <ele>37.63</ele>
        <time>2013-05-24T14:25:38Z</time>
      </trkpt>
      <trkpt lat="48.74595" lon="-3.45435">
        <ele>36.67</ele>
        <time>2013-05-24T14:25:39Z</time>
      </trkpt>
      <trkpt lat="48.74593" lon="-3.45442">
        <ele>35.23</ele>
        <time>2013-05-24T14:25:40Z</time>
      </trkpt>
      <trkpt lat="48.74589" lon="-3.45453">
        <ele>34.26</ele>
        <time>2013-05-24T14:25:42Z</time>
      </trkpt>
      <trkpt lat="48.74588" lon="-3.45464">
        <ele>34.26</ele>
        <time>2013-05-24T14:25:53Z</time>
      </trkpt>
      <trkpt lat="48.74586" lon="-3.45472">
        <ele>34.74</ele>
        <time>2013-05-24T14:26:01Z</time>
      </trkpt>
      <trkpt lat="48.74584" lon="-3.45472">
        <ele>34.74</ele>
        <time>2013-05-24T14:26:02Z</time>
      </trkpt>
      <trkpt lat="48.74591" lon="-3.45483">
        <ele>34.26</ele>
        <time>2013-05-24T14:26:03Z</time>
      </trkpt>
      <trkpt lat="48.74592" lon="-3.45485">
        <ele>34.26</ele>
        <time>2013-05-24T14:26:04Z</time>
      </trkpt>
      <trkpt lat="48.74589" lon="-3.45484">
        <ele>33.78</ele>
        <time>2013-05-24T14:26:05Z</time>
      </trkpt>
      <trkpt lat="48.74577" lon="-3.45471">
        <ele>33.3</ele>
        <time>2013-05-24T14:26:08Z</time>
      </trkpt>
      <trkpt lat="48.74563" lon="-3.45453">
        <ele>31.86</ele>
        <time>2013-05-24T14:26:11Z</time>
      </trkpt>
      <trkpt lat="48.74557" lon="-3.45444">
        <ele>31.38</ele>
        <time>2013-05-24T14:26:12Z</time>
      </trkpt>
      <trkpt lat="48.74541" lon="-3.4541">
        <ele>29.94</ele>
        <time>2013-05-24T14:26:15Z</time>
      </trkpt>
      <trkpt lat="48.74517" lon="-3.45367">
        <ele>29.46</ele>
        <time>2013-05-24T14:26:19Z</time>
      </trkpt>
      <trkpt lat="48.74511" lon="-3.45359">
        <ele>29.94</ele>
        <time>2013-05-24T14:26:20Z</time>
      </trkpt>
      <trkpt lat="48.74487" lon="-3.45331">
        <ele>32.34</ele>
        <time>2013-05-24T14:26:25Z</time>
      </trkpt>
      <trkpt lat="48.74462" lon="-3.45304">
        <ele>35.71</ele>
        <time>2013-05-24T14:26:32Z</time>
      </trkpt>
      <trkpt lat="48.74451" lon="-3.45292">
        <ele>37.15</ele>
        <time>2013-05-24T14:26:35Z</time>
      </trkpt>
      <trkpt lat="48.74448" lon="-3.45287">
        <ele>37.15</ele>
        <time>2013-05-24T14:26:36Z</time>
      </trkpt>
      <trkpt lat="48.74445" lon="-3.45281">
        <ele>37.63</ele>
        <time>2013-05-24T14:26:37Z</time>
      </trkpt>
      <trkpt lat="48.74441" lon="-3.45276">
        <ele>39.07</ele>
        <time>2013-05-24T14:26:38Z</time>
      </trkpt>
      <trkpt lat="48.74437" lon="-3.45271">
        <ele>38.59</ele>
        <time>2013-05-24T14:26:39Z</time>
      </trkpt>
      <trkpt lat="48.74433" lon="-3.45267">
        <ele>38.59</ele>
        <time>2013-05-24T14:26:40Z</time>
      </trkpt>
      <trkpt lat="48.74412" lon="-3.45241">
        <ele>40.03</ele>
        <time>2013-05-24T14:26:45Z</time>
      </trkpt>
      <trkpt lat="48.7441" lon="-3.45235">
        <ele>40.51</ele>
        <time>2013-05-24T14:26:46Z</time>
      </trkpt>
      <trkpt lat="48.7441" lon="-3.45228">
        <ele>40.51</ele>
        <time>2013-05-24T14:26:47Z</time>
      </trkpt>
      <trkpt lat="48.74412" lon="-3.4522">
        <ele>40.99</ele>
        <time>2013-05-24T14:26:48Z</time>
      </trkpt>
      <trkpt lat="48.74416" lon="-3.45213">
        <ele>40.99</ele>
        <time>2013-05-24T14:26:49Z</time>
      </trkpt>
      <trkpt lat="48.7442" lon="-3.45208">
        <ele>41.47</ele>
        <time>2013-05-24T14:26:50Z</time>
      </trkpt>
      <trkpt lat="48.74425" lon="-3.45203">
        <ele>41.47</ele>
        <time>2013-05-24T14:26:51Z</time>
      </trkpt>
      <trkpt lat="48.74431" lon="-3.45199">
        <ele>41.95</ele>
        <time>2013-05-24T14:26:52Z</time>
      </trkpt>
      <trkpt lat="48.74506" lon="-3.45152">
        <ele>42.92</ele>
        <time>2013-05-24T14:27:08Z</time>
      </trkpt>
      <trkpt lat="48.74581" lon="-3.451">
        <ele>44.84</ele>
        <time>2013-05-24T14:27:25Z</time>
      </trkpt>
      <trkpt lat="48.74634" lon="-3.45068">
        <ele>48.2</ele>
        <time>2013-05-24T14:27:38Z</time>
      </trkpt>
      <trkpt lat="48.74664" lon="-3.45045">
        <ele>50.13</ele>
        <time>2013-05-24T14:27:46Z</time>
      </trkpt>
      <trkpt lat="48.74668" lon="-3.45041">
        <ele>49.65</ele>
        <time>2013-05-24T14:27:47Z</time>
      </trkpt>
      <trkpt lat="48.7469" lon="-3.45021">
        <ele>53.01</ele>
        <time>2013-05-24T14:27:53Z</time>
      </trkpt>
      <trkpt lat="48.74727" lon="-3.44982">
        <ele>53.97</ele>
        <time>2013-05-24T14:28:04Z</time>
      </trkpt>
      <trkpt lat="48.7473" lon="-3.44978">
        <ele>53.97</ele>
        <time>2013-05-24T14:28:05Z</time>
      </trkpt>
      <trkpt lat="48.74733" lon="-3.44975">
        <ele>53.97</ele>
        <time>2013-05-24T14:28:06Z</time>
      </trkpt>
      <trkpt lat="48.74764" lon="-3.44937">
        <ele>57.34</ele>
        <time>2013-05-24T14:28:16Z</time>
      </trkpt>
      <trkpt lat="48.74789" lon="-3.44889">
        <ele>59.26</ele>
        <time>2013-05-24T14:28:26Z</time>
      </trkpt>
      <trkpt lat="48.74793" lon="-3.44885">
        <ele>59.74</ele>
        <time>2013-05-24T14:28:27Z</time>
      </trkpt>
      <trkpt lat="48.748" lon="-3.44878">
        <ele>59.74</ele>
        <time>2013-05-24T14:28:29Z</time>
      </trkpt>
      <trkpt lat="48.74804" lon="-3.44873">
        <ele>59.74</ele>
        <time>2013-05-24T14:28:30Z</time>
      </trkpt>
      <trkpt lat="48.74807" lon="-3.44868">
        <ele>59.26</ele>
        <time>2013-05-24T14:28:31Z</time>
      </trkpt>
      <trkpt lat="48.74866" lon="-3.44792">
        <ele>60.22</ele>
        <time>2013-05-24T14:28:47Z</time>
      </trkpt>
      <trkpt lat="48.74881" lon="-3.44774">
        <ele>58.78</ele>
        <time>2013-05-24T14:28:51Z</time>
      </trkpt>
      <trkpt lat="48.74905" lon="-3.44744">
        <ele>60.22</ele>
        <time>2013-05-24T14:28:57Z</time>
      </trkpt>
      <trkpt lat="48.7498" lon="-3.44668">
        <ele>62.14</ele>
        <time>2013-05-24T14:29:14Z</time>
      </trkpt>
      <trkpt lat="48.75038" lon="-3.44614">
        <ele>62.62</ele>
        <time>2013-05-24T14:29:27Z</time>
      </trkpt>
      <trkpt lat="48.75082" lon="-3.44583">
        <ele>65.99</ele>
        <time>2013-05-24T14:29:37Z</time>
      </trkpt>
      <trkpt lat="48.75123" lon="-3.44538">
        <ele>66.95</ele>
        <time>2013-05-24T14:29:50Z</time>
      </trkpt>
      <trkpt lat="48.75131" lon="-3.44525">
        <ele>67.43</ele>
        <time>2013-05-24T14:29:53Z</time>
      </trkpt>
      <trkpt lat="48.75134" lon="-3.44519">
        <ele>66.95</ele>
        <time>2013-05-24T14:29:54Z</time>
      </trkpt>
      <trkpt lat="48.75136" lon="-3.44514">
        <ele>67.43</ele>
        <time>2013-05-24T14:29:55Z</time>
      </trkpt>
      <trkpt lat="48.7518" lon="-3.44421">
        <ele>68.39</ele>
        <time>2013-05-24T14:30:10Z</time>
      </trkpt>
      <trkpt lat="48.75221" lon="-3.44359">
        <ele>69.83</ele>
        <time>2013-05-24T14:30:21Z</time>
      </trkpt>
      <trkpt lat="48.75225" lon="-3.44354">
        <ele>69.83</ele>
        <time>2013-05-24T14:30:22Z</time>
      </trkpt>
      <trkpt lat="48.75229" lon="-3.44349">
        <ele>69.83</ele>
        <time>2013-05-24T14:30:23Z</time>
      </trkpt>
      <trkpt lat="48.75294" lon="-3.44255">
        <ele>71.27</ele>
        <time>2013-05-24T14:30:40Z</time>
      </trkpt>
      <trkpt lat="48.75321" lon="-3.44205">
        <ele>71.27</ele>
        <time>2013-05-24T14:30:48Z</time>
      </trkpt>
      <trkpt lat="48.75358" lon="-3.44095">
        <ele>71.27</ele>
        <time>2013-05-24T14:31:03Z</time>
      </trkpt>
      <trkpt lat="48.75417" lon="-3.43999">
        <ele>72.24</ele>
        <time>2013-05-24T14:31:18Z</time>
      </trkpt>
      <trkpt lat="48.75494" lon="-3.43932">
        <ele>72.72</ele>
        <time>2013-05-24T14:31:34Z</time>
      </trkpt>
      <trkpt lat="48.75609" lon="-3.43871">
        <ele>74.64</ele>
        <time>2013-05-24T14:31:56Z</time>
      </trkpt>
      <trkpt lat="48.75715" lon="-3.43813">
        <ele>76.08</ele>
        <time>2013-05-24T14:32:16Z</time>
      </trkpt>
      <trkpt lat="48.75774" lon="-3.43781">
        <ele>75.6</ele>
        <time>2013-05-24T14:32:27Z</time>
      </trkpt>
      <trkpt lat="48.75837" lon="-3.43747">
        <ele>76.08</ele>
        <time>2013-05-24T14:32:40Z</time>
      </trkpt>
      <trkpt lat="48.75943" lon="-3.43675">
        <ele>76.08</ele>
        <time>2013-05-24T14:33:00Z</time>
      </trkpt>
      <trkpt lat="48.76038" lon="-3.43573">
        <ele>77.04</ele>
        <time>2013-05-24T14:33:20Z</time>
      </trkpt>
      <trkpt lat="48.76117" lon="-3.43439">
        <ele>78.48</ele>
        <time>2013-05-24T14:33:39Z</time>
      </trkpt>
      <trkpt lat="48.76187" lon="-3.43307">
        <ele>76.56</ele>
        <time>2013-05-24T14:33:57Z</time>
      </trkpt>
      <trkpt lat="48.76246" lon="-3.43222">
        <ele>74.64</ele>
        <time>2013-05-24T14:34:10Z</time>
      </trkpt>
      <trkpt lat="48.76304" lon="-3.43161">
        <ele>74.16</ele>
        <time>2013-05-24T14:34:20Z</time>
      </trkpt>
      <trkpt lat="48.76409" lon="-3.43088">
        <ele>71.27</ele>
        <time>2013-05-24T14:34:36Z</time>
      </trkpt>
      <trkpt lat="48.76537" lon="-3.43029">
        <ele>71.76</ele>
        <time>2013-05-24T14:34:54Z</time>
      </trkpt>
      <trkpt lat="48.76556" lon="-3.43016">
        <ele>68.39</ele>
        <time>2013-05-24T14:34:57Z</time>
      </trkpt>
      <trkpt lat="48.76649" lon="-3.42924">
        <ele>66.47</ele>
        <time>2013-05-24T14:35:12Z</time>
      </trkpt>
      <trkpt lat="48.7676" lon="-3.42796">
        <ele>65.99</ele>
        <time>2013-05-24T14:35:31Z</time>
      </trkpt>
      <trkpt lat="48.76838" lon="-3.42741">
        <ele>67.43</ele>
        <time>2013-05-24T14:35:45Z</time>
      </trkpt>
      <trkpt lat="48.76938" lon="-3.42651">
        <ele>66.47</ele>
        <time>2013-05-24T14:36:03Z</time>
      </trkpt>
      <trkpt lat="48.77026" lon="-3.42526">
        <ele>64.07</ele>
        <time>2013-05-24T14:36:21Z</time>
      </trkpt>
      <trkpt lat="48.77116" lon="-3.42391">
        <ele>61.66</ele>
        <time>2013-05-24T14:36:38Z</time>
      </trkpt>
      <trkpt lat="48.77207" lon="-3.42253">
        <ele>58.78</ele>
        <time>2013-05-24T14:36:55Z</time>
      </trkpt>
      <trkpt lat="48.77255" lon="-3.42181">
        <ele>56.37</ele>
        <time>2013-05-24T14:37:05Z</time>
      </trkpt>
      <trkpt lat="48.77334" lon="-3.42038">
        <ele>56.86</ele>
        <time>2013-05-24T14:37:22Z</time>
      </trkpt>
      <trkpt lat="48.77376" lon="-3.41934">
        <ele>56.37</ele>
        <time>2013-05-24T14:37:32Z</time>
      </trkpt>
      <trkpt lat="48.77454" lon="-3.41797">
        <ele>54.93</ele>
        <time>2013-05-24T14:37:48Z</time>
      </trkpt>
      <trkpt lat="48.77538" lon="-3.41691">
        <ele>56.37</ele>
        <time>2013-05-24T14:38:03Z</time>
      </trkpt>
      <trkpt lat="48.77543" lon="-3.41685">
        <ele>56.86</ele>
        <time>2013-05-24T14:38:04Z</time>
      </trkpt>
      <trkpt lat="48.77621" lon="-3.41589">
        <ele>59.74</ele>
        <time>2013-05-24T14:38:20Z</time>
      </trkpt>
      <trkpt lat="48.77685" lon="-3.41508">
        <ele>63.1</ele>
        <time>2013-05-24T14:38:34Z</time>
      </trkpt>
      <trkpt lat="48.77715" lon="-3.41462">
        <ele>64.07</ele>
        <time>2013-05-24T14:38:41Z</time>
      </trkpt>
      <trkpt lat="48.77746" lon="-3.41396">
        <ele>65.99</ele>
        <time>2013-05-24T14:38:50Z</time>
      </trkpt>
      <trkpt lat="48.77788" lon="-3.41266">
        <ele>66.47</ele>
        <time>2013-05-24T14:39:06Z</time>
      </trkpt>
      <trkpt lat="48.77825" lon="-3.41115">
        <ele>66.95</ele>
        <time>2013-05-24T14:39:23Z</time>
      </trkpt>
      <trkpt lat="48.77836" lon="-3.41071">
        <ele>65.99</ele>
        <time>2013-05-24T14:39:28Z</time>
      </trkpt>
      <trkpt lat="48.77878" lon="-3.40906">
        <ele>67.91</ele>
        <time>2013-05-24T14:39:46Z</time>
      </trkpt>
      <trkpt lat="48.77925" lon="-3.40734">
        <ele>69.83</ele>
        <time>2013-05-24T14:40:05Z</time>
      </trkpt>
      <trkpt lat="48.77979" lon="-3.40574">
        <ele>71.76</ele>
        <time>2013-05-24T14:40:24Z</time>
      </trkpt>
      <trkpt lat="48.78037" lon="-3.40429">
        <ele>72.72</ele>
        <time>2013-05-24T14:40:42Z</time>
      </trkpt>
      <trkpt lat="48.78103" lon="-3.4027">
        <ele>74.16</ele>
        <time>2013-05-24T14:41:01Z</time>
      </trkpt>
      <trkpt lat="48.7818" lon="-3.40084">
        <ele>73.68</ele>
        <time>2013-05-24T14:41:23Z</time>
      </trkpt>
      <trkpt lat="48.78252" lon="-3.39909">
        <ele>72.24</ele>
        <time>2013-05-24T14:41:44Z</time>
      </trkpt>
      <trkpt lat="48.78301" lon="-3.39805">
        <ele>73.68</ele>
        <time>2013-05-24T14:41:57Z</time>
      </trkpt>
      <trkpt lat="48.7838" lon="-3.39704">
        <ele>72.24</ele>
        <time>2013-05-24T14:42:13Z</time>
      </trkpt>
      <trkpt lat="48.78462" lon="-3.39656">
        <ele>72.24</ele>
        <time>2013-05-24T14:42:26Z</time>
      </trkpt>
      <trkpt lat="48.78473" lon="-3.39651">
        <ele>72.72</ele>
        <time>2013-05-24T14:42:28Z</time>
      </trkpt>
      <trkpt lat="48.78479" lon="-3.39646">
        <ele>71.76</ele>
        <time>2013-05-24T14:42:29Z</time>
      </trkpt>
      <trkpt lat="48.78483" lon="-3.39638">
        <ele>71.27</ele>
        <time>2013-05-24T14:42:30Z</time>
      </trkpt>
      <trkpt lat="48.78484" lon="-3.3963">
        <ele>71.27</ele>
        <time>2013-05-24T14:42:31Z</time>
      </trkpt>
      <trkpt lat="48.78483" lon="-3.3962">
        <ele>71.27</ele>
        <time>2013-05-24T14:42:32Z</time>
      </trkpt>
      <trkpt lat="48.78479" lon="-3.39612">
        <ele>70.79</ele>
        <time>2013-05-24T14:42:33Z</time>
      </trkpt>
      <trkpt lat="48.78473" lon="-3.39605">
        <ele>71.27</ele>
        <time>2013-05-24T14:42:34Z</time>
      </trkpt>
      <trkpt lat="48.78467" lon="-3.396">
        <ele>71.27</ele>
        <time>2013-05-24T14:42:35Z</time>
      </trkpt>
      <trkpt lat="48.78422" lon="-3.39564">
        <ele>73.68</ele>
        <time>2013-05-24T14:42:42Z</time>
      </trkpt>
      <trkpt lat="48.78344" lon="-3.39487">
        <ele>73.68</ele>
        <time>2013-05-24T14:42:55Z</time>
      </trkpt>
      <trkpt lat="48.78283" lon="-3.39382">
        <ele>72.72</ele>
        <time>2013-05-24T14:43:08Z</time>
      </trkpt>
      <trkpt lat="48.78239" lon="-3.39254">
        <ele>73.68</ele>
        <time>2013-05-24T14:43:21Z</time>
      </trkpt>
      <trkpt lat="48.78194" lon="-3.39053">
        <ele>70.31</ele>
        <time>2013-05-24T14:43:37Z</time>
      </trkpt>
      <trkpt lat="48.78143" lon="-3.38829">
        <ele>68.39</ele>
        <time>2013-05-24T14:43:55Z</time>
      </trkpt>
      <trkpt lat="48.78125" lon="-3.38773">
        <ele>67.43</ele>
        <time>2013-05-24T14:44:00Z</time>
      </trkpt>
      <trkpt lat="48.7805" lon="-3.38586">
        <ele>70.31</ele>
        <time>2013-05-24T14:44:18Z</time>
      </trkpt>
      <trkpt lat="48.77989" lon="-3.38429">
        <ele>73.2</ele>
        <time>2013-05-24T14:44:35Z</time>
      </trkpt>
      <trkpt lat="48.77925" lon="-3.38268">
        <ele>74.16</ele>
        <time>2013-05-24T14:44:52Z</time>
      </trkpt>
      <trkpt lat="48.77868" lon="-3.38121">
        <ele>73.68</ele>
        <time>2013-05-24T14:45:06Z</time>
      </trkpt>
      <trkpt lat="48.77779" lon="-3.37896">
        <ele>70.31</ele>
        <time>2013-05-24T14:45:25Z</time>
      </trkpt>
      <trkpt lat="48.77719" lon="-3.37741">
        <ele>66.95</ele>
        <time>2013-05-24T14:45:38Z</time>
      </trkpt>
      <trkpt lat="48.77661" lon="-3.37585">
        <ele>68.39</ele>
        <time>2013-05-24T14:45:52Z</time>
      </trkpt>
      <trkpt lat="48.77648" lon="-3.37548">
        <ele>69.35</ele>
        <time>2013-05-24T14:45:56Z</time>
      </trkpt>
      <trkpt lat="48.77607" lon="-3.37446">
        <ele>72.72</ele>
        <time>2013-05-24T14:46:09Z</time>
      </trkpt>
      <trkpt lat="48.77582" lon="-3.3739">
        <ele>76.08</ele>
        <time>2013-05-24T14:46:18Z</time>
      </trkpt>
      <trkpt lat="48.77556" lon="-3.3733">
        <ele>78.97</ele>
        <time>2013-05-24T14:46:28Z</time>
      </trkpt>
      <trkpt lat="48.77553" lon="-3.37324">
        <ele>79.45</ele>
        <time>2013-05-24T14:46:29Z</time>
      </trkpt>
      <trkpt lat="48.77522" lon="-3.37248">
        <ele>82.33</ele>
        <time>2013-05-24T14:46:41Z</time>
      </trkpt>
      <trkpt lat="48.77466" lon="-3.37098">
        <ele>83.29</ele>
        <time>2013-05-24T14:47:00Z</time>
      </trkpt>
      <trkpt lat="48.774" lon="-3.36949">
        <ele>81.37</ele>
        <time>2013-05-24T14:47:15Z</time>
      </trkpt>
      <trkpt lat="48.77321" lon="-3.36802">
        <ele>81.85</ele>
        <time>2013-05-24T14:47:30Z</time>
      </trkpt>
      <trkpt lat="48.77254" lon="-3.36675">
        <ele>84.25</ele>
        <time>2013-05-24T14:47:45Z</time>
      </trkpt>
      <trkpt lat="48.77221" lon="-3.36627">
        <ele>86.66</ele>
        <time>2013-05-24T14:47:52Z</time>
      </trkpt>
      <trkpt lat="48.77216" lon="-3.36622">
        <ele>87.14</ele>
        <time>2013-05-24T14:47:53Z</time>
      </trkpt>
      <trkpt lat="48.77211" lon="-3.36617">
        <ele>87.14</ele>
        <time>2013-05-24T14:47:54Z</time>
      </trkpt>
      <trkpt lat="48.772" lon="-3.36609">
        <ele>88.58</ele>
        <time>2013-05-24T14:47:56Z</time>
      </trkpt>
      <trkpt lat="48.77195" lon="-3.36603">
        <ele>88.1</ele>
        <time>2013-05-24T14:47:57Z</time>
      </trkpt>
      <trkpt lat="48.77192" lon="-3.36594">
        <ele>88.1</ele>
        <time>2013-05-24T14:47:58Z</time>
      </trkpt>
      <trkpt lat="48.77189" lon="-3.36577">
        <ele>88.58</ele>
        <time>2013-05-24T14:48:00Z</time>
      </trkpt>
      <trkpt lat="48.77185" lon="-3.36568">
        <ele>88.58</ele>
        <time>2013-05-24T14:48:01Z</time>
      </trkpt>
      <trkpt lat="48.77121" lon="-3.36453">
        <ele>91.46</ele>
        <time>2013-05-24T14:48:15Z</time>
      </trkpt>
      <trkpt lat="48.77017" lon="-3.36271">
        <ele>91.94</ele>
        <time>2013-05-24T14:48:36Z</time>
      </trkpt>
      <trkpt lat="48.76937" lon="-3.36094">
        <ele>92.42</ele>
        <time>2013-05-24T14:48:54Z</time>
      </trkpt>
      <trkpt lat="48.76884" lon="-3.35877">
        <ele>90.98</ele>
        <time>2013-05-24T14:49:12Z</time>
      </trkpt>
      <trkpt lat="48.76846" lon="-3.3569">
        <ele>87.62</ele>
        <time>2013-05-24T14:49:25Z</time>
      </trkpt>
      <trkpt lat="48.76852" lon="-3.35509">
        <ele>88.58</ele>
        <time>2013-05-24T14:49:37Z</time>
      </trkpt>
      <trkpt lat="48.76882" lon="-3.35282">
        <ele>88.1</ele>
        <time>2013-05-24T14:49:54Z</time>
      </trkpt>
      <trkpt lat="48.76896" lon="-3.35178">
        <ele>91.46</ele>
        <time>2013-05-24T14:50:02Z</time>
      </trkpt>
      <trkpt lat="48.76912" lon="-3.35065">
        <ele>90.5</ele>
        <time>2013-05-24T14:50:11Z</time>
      </trkpt>
      <trkpt lat="48.76916" lon="-3.3504">
        <ele>90.98</ele>
        <time>2013-05-24T14:50:13Z</time>
      </trkpt>
      <trkpt lat="48.7693" lon="-3.34927">
        <ele>92.9</ele>
        <time>2013-05-24T14:50:22Z</time>
      </trkpt>
      <trkpt lat="48.76954" lon="-3.34732">
        <ele>90.5</ele>
        <time>2013-05-24T14:50:38Z</time>
      </trkpt>
      <trkpt lat="48.76978" lon="-3.34567">
        <ele>90.02</ele>
        <time>2013-05-24T14:50:51Z</time>
      </trkpt>
      <trkpt lat="48.7699" lon="-3.34382">
        <ele>90.02</ele>
        <time>2013-05-24T14:51:05Z</time>
      </trkpt>
      <trkpt lat="48.76992" lon="-3.34165">
        <ele>89.06</ele>
        <time>2013-05-24T14:51:21Z</time>
      </trkpt>
      <trkpt lat="48.76993" lon="-3.33962">
        <ele>86.18</ele>
        <time>2013-05-24T14:51:35Z</time>
      </trkpt>
      <trkpt lat="48.76995" lon="-3.33721">
        <ele>83.77</ele>
        <time>2013-05-24T14:51:50Z</time>
      </trkpt>
      <trkpt lat="48.76995" lon="-3.33642">
        <ele>82.33</ele>
        <time>2013-05-24T14:51:55Z</time>
      </trkpt>
      <trkpt lat="48.76998" lon="-3.33404">
        <ele>81.85</ele>
        <time>2013-05-24T14:52:10Z</time>
      </trkpt>
      <trkpt lat="48.76982" lon="-3.33233">
        <ele>79.93</ele>
        <time>2013-05-24T14:52:21Z</time>
      </trkpt>
      <trkpt lat="48.76946" lon="-3.32976">
        <ele>79.93</ele>
        <time>2013-05-24T14:52:38Z</time>
      </trkpt>
      <trkpt lat="48.76907" lon="-3.327">
        <ele>77.04</ele>
        <time>2013-05-24T14:52:56Z</time>
      </trkpt>
      <trkpt lat="48.769" lon="-3.32653">
        <ele>75.6</ele>
        <time>2013-05-24T14:52:59Z</time>
      </trkpt>
      <trkpt lat="48.76876" lon="-3.32486">
        <ele>72.24</ele>
        <time>2013-05-24T14:53:09Z</time>
      </trkpt>
      <trkpt lat="48.76871" lon="-3.3245">
        <ele>71.27</ele>
        <time>2013-05-24T14:53:11Z</time>
      </trkpt>
      <trkpt lat="48.76861" lon="-3.32378">
        <ele>69.35</ele>
        <time>2013-05-24T14:53:15Z</time>
      </trkpt>
      <trkpt lat="48.76855" lon="-3.32162">
        <ele>66.95</ele>
        <time>2013-05-24T14:53:27Z</time>
      </trkpt>
      <trkpt lat="48.76858" lon="-3.3208">
        <ele>64.07</ele>
        <time>2013-05-24T14:53:32Z</time>
      </trkpt>
      <trkpt lat="48.76869" lon="-3.31807">
        <ele>60.7</ele>
        <time>2013-05-24T14:53:49Z</time>
      </trkpt>
      <trkpt lat="48.7687" lon="-3.31792">
        <ele>60.7</ele>
        <time>2013-05-24T14:53:50Z</time>
      </trkpt>
      <trkpt lat="48.76867" lon="-3.31563">
        <ele>59.74</ele>
        <time>2013-05-24T14:54:04Z</time>
      </trkpt>
      <trkpt lat="48.76824" lon="-3.31369">
        <ele>59.26</ele>
        <time>2013-05-24T14:54:16Z</time>
      </trkpt>
      <trkpt lat="48.76751" lon="-3.31117">
        <ele>57.34</ele>
        <time>2013-05-24T14:54:32Z</time>
      </trkpt>
      <trkpt lat="48.76664" lon="-3.3081">
        <ele>53.97</ele>
        <time>2013-05-24T14:54:51Z</time>
      </trkpt>
      <trkpt lat="48.76652" lon="-3.30776">
        <ele>51.09</ele>
        <time>2013-05-24T14:54:53Z</time>
      </trkpt>
      <trkpt lat="48.76612" lon="-3.30689">
        <ele>47.24</ele>
        <time>2013-05-24T14:54:58Z</time>
      </trkpt>
      <trkpt lat="48.76595" lon="-3.30653">
        <ele>46.76</ele>
        <time>2013-05-24T14:55:00Z</time>
      </trkpt>
      <trkpt lat="48.7656" lon="-3.30579">
        <ele>43.4</ele>
        <time>2013-05-24T14:55:04Z</time>
      </trkpt>
      <trkpt lat="48.76552" lon="-3.30561">
        <ele>42.92</ele>
        <time>2013-05-24T14:55:05Z</time>
      </trkpt>
      <trkpt lat="48.76517" lon="-3.30486">
        <ele>41.47</ele>
        <time>2013-05-24T14:55:09Z</time>
      </trkpt>
      <trkpt lat="48.76487" lon="-3.3041">
        <ele>38.11</ele>
        <time>2013-05-24T14:55:13Z</time>
      </trkpt>
      <trkpt lat="48.76469" lon="-3.30327">
        <ele>36.19</ele>
        <time>2013-05-24T14:55:17Z</time>
      </trkpt>
      <trkpt lat="48.76461" lon="-3.30242">
        <ele>34.74</ele>
        <time>2013-05-24T14:55:21Z</time>
      </trkpt>
      <trkpt lat="48.76456" lon="-3.30159">
        <ele>32.82</ele>
        <time>2013-05-24T14:55:25Z</time>
      </trkpt>
      <trkpt lat="48.76444" lon="-3.29956">
        <ele>32.82</ele>
        <time>2013-05-24T14:55:37Z</time>
      </trkpt>
      <trkpt lat="48.76437" lon="-3.29881">
        <ele>30.42</ele>
        <time>2013-05-24T14:55:43Z</time>
      </trkpt>
      <trkpt lat="48.76417" lon="-3.29798">
        <ele>28.5</ele>
        <time>2013-05-24T14:55:49Z</time>
      </trkpt>
      <trkpt lat="48.76411" lon="-3.29785">
        <ele>27.53</ele>
        <time>2013-05-24T14:55:50Z</time>
      </trkpt>
      <trkpt lat="48.76404" lon="-3.29772">
        <ele>26.57</ele>
        <time>2013-05-24T14:55:51Z</time>
      </trkpt>
      <trkpt lat="48.76396" lon="-3.2976">
        <ele>26.57</ele>
        <time>2013-05-24T14:55:52Z</time>
      </trkpt>
      <trkpt lat="48.76388" lon="-3.29748">
        <ele>26.09</ele>
        <time>2013-05-24T14:55:53Z</time>
      </trkpt>
      <trkpt lat="48.76379" lon="-3.29736">
        <ele>25.13</ele>
        <time>2013-05-24T14:55:54Z</time>
      </trkpt>
      <trkpt lat="48.7637" lon="-3.29726">
        <ele>24.65</ele>
        <time>2013-05-24T14:55:55Z</time>
      </trkpt>
      <trkpt lat="48.7636" lon="-3.29716">
        <ele>24.17</ele>
        <time>2013-05-24T14:55:56Z</time>
      </trkpt>
      <trkpt lat="48.76349" lon="-3.29707">
        <ele>23.21</ele>
        <time>2013-05-24T14:55:57Z</time>
      </trkpt>
      <trkpt lat="48.76338" lon="-3.29699">
        <ele>22.73</ele>
        <time>2013-05-24T14:55:58Z</time>
      </trkpt>
      <trkpt lat="48.76326" lon="-3.29691">
        <ele>22.25</ele>
        <time>2013-05-24T14:55:59Z</time>
      </trkpt>
      <trkpt lat="48.7628" lon="-3.29663">
        <ele>20.32</ele>
        <time>2013-05-24T14:56:03Z</time>
      </trkpt>
      <trkpt lat="48.76212" lon="-3.29614">
        <ele>16.48</ele>
        <time>2013-05-24T14:56:09Z</time>
      </trkpt>
      <trkpt lat="48.76202" lon="-3.29603">
        <ele>16.48</ele>
        <time>2013-05-24T14:56:10Z</time>
      </trkpt>
      <trkpt lat="48.76112" lon="-3.2949">
        <ele>15.04</ele>
        <time>2013-05-24T14:56:21Z</time>
      </trkpt>
      <trkpt lat="48.76065" lon="-3.29425">
        <ele>16.96</ele>
        <time>2013-05-24T14:56:28Z</time>
      </trkpt>
      <trkpt lat="48.76058" lon="-3.2942">
        <ele>16.96</ele>
        <time>2013-05-24T14:56:29Z</time>
      </trkpt>
      <trkpt lat="48.76051" lon="-3.29417">
        <ele>17.92</ele>
        <time>2013-05-24T14:56:30Z</time>
      </trkpt>
      <trkpt lat="48.76043" lon="-3.29416">
        <ele>17.44</ele>
        <time>2013-05-24T14:56:31Z</time>
      </trkpt>
      <trkpt lat="48.76036" lon="-3.29415">
        <ele>17.44</ele>
        <time>2013-05-24T14:56:32Z</time>
      </trkpt>
      <trkpt lat="48.76028" lon="-3.29413">
        <ele>16.96</ele>
        <time>2013-05-24T14:56:33Z</time>
      </trkpt>
      <trkpt lat="48.76021" lon="-3.29409">
        <ele>16.48</ele>
        <time>2013-05-24T14:56:34Z</time>
      </trkpt>
      <trkpt lat="48.76015" lon="-3.29404">
        <ele>16.48</ele>
        <time>2013-05-24T14:56:35Z</time>
      </trkpt>
      <trkpt lat="48.76009" lon="-3.29397">
        <ele>15.52</ele>
        <time>2013-05-24T14:56:36Z</time>
      </trkpt>
      <trkpt lat="48.76003" lon="-3.2939">
        <ele>15.52</ele>
        <time>2013-05-24T14:56:37Z</time>
      </trkpt>
      <trkpt lat="48.7599" lon="-3.29378">
        <ele>16.48</ele>
        <time>2013-05-24T14:56:39Z</time>
      </trkpt>
      <trkpt lat="48.75969" lon="-3.29364">
        <ele>19.36</ele>
        <time>2013-05-24T14:56:42Z</time>
      </trkpt>
      <trkpt lat="48.75963" lon="-3.29358">
        <ele>19.36</ele>
        <time>2013-05-24T14:56:43Z</time>
      </trkpt>
      <trkpt lat="48.75897" lon="-3.29283">
        <ele>21.29</ele>
        <time>2013-05-24T14:56:55Z</time>
      </trkpt>
      <trkpt lat="48.75879" lon="-3.29268">
        <ele>22.73</ele>
        <time>2013-05-24T14:56:58Z</time>
      </trkpt>
      <trkpt lat="48.75768" lon="-3.29206">
        <ele>21.77</ele>
        <time>2013-05-24T14:57:13Z</time>
      </trkpt>
      <trkpt lat="48.75652" lon="-3.2919">
        <ele>23.21</ele>
        <time>2013-05-24T14:57:28Z</time>
      </trkpt>
      <trkpt lat="48.75541" lon="-3.29147">
        <ele>25.61</ele>
        <time>2013-05-24T14:57:44Z</time>
      </trkpt>
      <trkpt lat="48.75392" lon="-3.29086">
        <ele>25.61</ele>
        <time>2013-05-24T14:58:05Z</time>
      </trkpt>
      <trkpt lat="48.75329" lon="-3.29062">
        <ele>24.65</ele>
        <time>2013-05-24T14:58:13Z</time>
      </trkpt>
      <trkpt lat="48.75322" lon="-3.29057">
        <ele>23.69</ele>
        <time>2013-05-24T14:58:14Z</time>
      </trkpt>
      <trkpt lat="48.75314" lon="-3.29051">
        <ele>23.69</ele>
        <time>2013-05-24T14:58:15Z</time>
      </trkpt>
      <trkpt lat="48.75307" lon="-3.29044">
        <ele>23.69</ele>
        <time>2013-05-24T14:58:16Z</time>
      </trkpt>
      <trkpt lat="48.75301" lon="-3.29035">
        <ele>23.21</ele>
        <time>2013-05-24T14:58:17Z</time>
      </trkpt>
      <trkpt lat="48.75295" lon="-3.29025">
        <ele>23.21</ele>
        <time>2013-05-24T14:58:18Z</time>
      </trkpt>
      <trkpt lat="48.7529" lon="-3.29015">
        <ele>23.21</ele>
        <time>2013-05-24T14:58:19Z</time>
      </trkpt>
      <trkpt lat="48.75286" lon="-3.29004">
        <ele>22.73</ele>
        <time>2013-05-24T14:58:20Z</time>
      </trkpt>
      <trkpt lat="48.75282" lon="-3.28992">
        <ele>22.73</ele>
        <time>2013-05-24T14:58:21Z</time>
      </trkpt>
      <trkpt lat="48.75279" lon="-3.2898">
        <ele>22.73</ele>
        <time>2013-05-24T14:58:22Z</time>
      </trkpt>
      <trkpt lat="48.7525" lon="-3.2881">
        <ele>19.36</ele>
        <time>2013-05-24T14:58:34Z</time>
      </trkpt>
      <trkpt lat="48.75237" lon="-3.28656">
        <ele>16</ele>
        <time>2013-05-24T14:58:44Z</time>
      </trkpt>
      <trkpt lat="48.75235" lon="-3.28643">
        <ele>16</ele>
        <time>2013-05-24T14:58:45Z</time>
      </trkpt>
      <trkpt lat="48.7522" lon="-3.28479">
        <ele>15.04</ele>
        <time>2013-05-24T14:58:58Z</time>
      </trkpt>
      <trkpt lat="48.75215" lon="-3.28433">
        <ele>16.48</ele>
        <time>2013-05-24T14:59:02Z</time>
      </trkpt>
      <trkpt lat="48.75179" lon="-3.28286">
        <ele>19.84</ele>
        <time>2013-05-24T14:59:16Z</time>
      </trkpt>
      <trkpt lat="48.75156" lon="-3.28215">
        <ele>21.29</ele>
        <time>2013-05-24T14:59:24Z</time>
      </trkpt>
      <trkpt lat="48.75152" lon="-3.28208">
        <ele>22.25</ele>
        <time>2013-05-24T14:59:25Z</time>
      </trkpt>
      <trkpt lat="48.75139" lon="-3.28187">
        <ele>23.69</ele>
        <time>2013-05-24T14:59:28Z</time>
      </trkpt>
      <trkpt lat="48.75135" lon="-3.28182">
        <ele>23.69</ele>
        <time>2013-05-24T14:59:29Z</time>
      </trkpt>
      <trkpt lat="48.7513" lon="-3.28177">
        <ele>23.69</ele>
        <time>2013-05-24T14:59:30Z</time>
      </trkpt>
      <trkpt lat="48.75098" lon="-3.28152">
        <ele>25.61</ele>
        <time>2013-05-24T14:59:36Z</time>
      </trkpt>
      <trkpt lat="48.75083" lon="-3.28139">
        <ele>25.61</ele>
        <time>2013-05-24T14:59:39Z</time>
      </trkpt>
      <trkpt lat="48.75079" lon="-3.28134">
        <ele>25.61</ele>
        <time>2013-05-24T14:59:40Z</time>
      </trkpt>
      <trkpt lat="48.75076" lon="-3.2813">
        <ele>25.61</ele>
        <time>2013-05-24T14:59:41Z</time>
      </trkpt>
      <trkpt lat="48.75071" lon="-3.28126">
        <ele>25.61</ele>
        <time>2013-05-24T14:59:42Z</time>
      </trkpt>
      <trkpt lat="48.75067" lon="-3.28125">
        <ele>26.09</ele>
        <time>2013-05-24T14:59:43Z</time>
      </trkpt>
      <trkpt lat="48.75062" lon="-3.28126">
        <ele>26.09</ele>
        <time>2013-05-24T14:59:44Z</time>
      </trkpt>
      <trkpt lat="48.75058" lon="-3.28129">
        <ele>25.61</ele>
        <time>2013-05-24T14:59:45Z</time>
      </trkpt>
      <trkpt lat="48.75053" lon="-3.28133">
        <ele>25.61</ele>
        <time>2013-05-24T14:59:46Z</time>
      </trkpt>
      <trkpt lat="48.75027" lon="-3.28157">
        <ele>28.98</ele>
        <time>2013-05-24T14:59:52Z</time>
      </trkpt>
      <trkpt lat="48.75023" lon="-3.28162">
        <ele>30.42</ele>
        <time>2013-05-24T14:59:53Z</time>
      </trkpt>
      <trkpt lat="48.75021" lon="-3.28168">
        <ele>31.38</ele>
        <time>2013-05-24T14:59:54Z</time>
      </trkpt>
      <trkpt lat="48.74987" lon="-3.28251">
        <ele>29.46</ele>
        <time>2013-05-24T15:00:07Z</time>
      </trkpt>
      <trkpt lat="48.74961" lon="-3.28334">
        <ele>29.46</ele>
        <time>2013-05-24T15:00:18Z</time>
      </trkpt>
      <trkpt lat="48.74919" lon="-3.28467">
        <ele>31.86</ele>
        <time>2013-05-24T15:00:35Z</time>
      </trkpt>
      <trkpt lat="48.74896" lon="-3.28586">
        <ele>32.34</ele>
        <time>2013-05-24T15:00:50Z</time>
      </trkpt>
      <trkpt lat="48.74875" lon="-3.28703">
        <ele>30.9</ele>
        <time>2013-05-24T15:01:03Z</time>
      </trkpt>
      <trkpt lat="48.74844" lon="-3.28822">
        <ele>27.53</ele>
        <time>2013-05-24T15:01:14Z</time>
      </trkpt>
      <trkpt lat="48.74843" lon="-3.28835">
        <ele>26.57</ele>
        <time>2013-05-24T15:01:15Z</time>
      </trkpt>
      <trkpt lat="48.74841" lon="-3.28849">
        <ele>26.57</ele>
        <time>2013-05-24T15:01:16Z</time>
      </trkpt>
      <trkpt lat="48.74838" lon="-3.28901">
        <ele>27.05</ele>
        <time>2013-05-24T15:01:20Z</time>
      </trkpt>
      <trkpt lat="48.74835" lon="-3.28911">
        <ele>26.57</ele>
        <time>2013-05-24T15:01:21Z</time>
      </trkpt>
      <trkpt lat="48.74831" lon="-3.2892">
        <ele>27.05</ele>
        <time>2013-05-24T15:01:22Z</time>
      </trkpt>
      <trkpt lat="48.74827" lon="-3.28927">
        <ele>26.09</ele>
        <time>2013-05-24T15:01:23Z</time>
      </trkpt>
      <trkpt lat="48.74822" lon="-3.28934">
        <ele>25.13</ele>
        <time>2013-05-24T15:01:24Z</time>
      </trkpt>
      <trkpt lat="48.74817" lon="-3.28942">
        <ele>25.13</ele>
        <time>2013-05-24T15:01:25Z</time>
      </trkpt>
      <trkpt lat="48.74814" lon="-3.28949">
        <ele>24.65</ele>
        <time>2013-05-24T15:01:26Z</time>
      </trkpt>
      <trkpt lat="48.74811" lon="-3.28958">
        <ele>24.65</ele>
        <time>2013-05-24T15:01:27Z</time>
      </trkpt>
      <trkpt lat="48.74809" lon="-3.28966">
        <ele>24.65</ele>
        <time>2013-05-24T15:01:28Z</time>
      </trkpt>
      <trkpt lat="48.74801" lon="-3.2902">
        <ele>24.65</ele>
        <time>2013-05-24T15:01:34Z</time>
      </trkpt>
      <trkpt lat="48.74798" lon="-3.29028">
        <ele>25.13</ele>
        <time>2013-05-24T15:01:35Z</time>
      </trkpt>
      <trkpt lat="48.74795" lon="-3.29035">
        <ele>25.61</ele>
        <time>2013-05-24T15:01:36Z</time>
      </trkpt>
      <trkpt lat="48.7479" lon="-3.29041">
        <ele>25.61</ele>
        <time>2013-05-24T15:01:37Z</time>
      </trkpt>
      <trkpt lat="48.74785" lon="-3.29046">
        <ele>25.61</ele>
        <time>2013-05-24T15:01:38Z</time>
      </trkpt>
      <trkpt lat="48.7478" lon="-3.29051">
        <ele>25.61</ele>
        <time>2013-05-24T15:01:39Z</time>
      </trkpt>
      <trkpt lat="48.74755" lon="-3.29073">
        <ele>25.61</ele>
        <time>2013-05-24T15:01:44Z</time>
      </trkpt>
      <trkpt lat="48.74751" lon="-3.29079">
        <ele>25.13</ele>
        <time>2013-05-24T15:01:45Z</time>
      </trkpt>
      <trkpt lat="48.74742" lon="-3.2909">
        <ele>25.61</ele>
        <time>2013-05-24T15:01:47Z</time>
      </trkpt>
      <trkpt lat="48.74738" lon="-3.29097">
        <ele>25.61</ele>
        <time>2013-05-24T15:01:48Z</time>
      </trkpt>
      <trkpt lat="48.74735" lon="-3.29104">
        <ele>26.09</ele>
        <time>2013-05-24T15:01:49Z</time>
      </trkpt>
      <trkpt lat="48.74701" lon="-3.29187">
        <ele>28.98</ele>
        <time>2013-05-24T15:02:00Z</time>
      </trkpt>
      <trkpt lat="48.74688" lon="-3.29215">
        <ele>29.94</ele>
        <time>2013-05-24T15:02:04Z</time>
      </trkpt>
      <trkpt lat="48.74637" lon="-3.29308">
        <ele>31.38</ele>
        <time>2013-05-24T15:02:19Z</time>
      </trkpt>
      <trkpt lat="48.74629" lon="-3.29319">
        <ele>31.86</ele>
        <time>2013-05-24T15:02:21Z</time>
      </trkpt>
      <trkpt lat="48.74563" lon="-3.29381">
        <ele>34.74</ele>
        <time>2013-05-24T15:02:35Z</time>
      </trkpt>
      <trkpt lat="48.74493" lon="-3.29418">
        <ele>37.63</ele>
        <time>2013-05-24T15:02:48Z</time>
      </trkpt>
      <trkpt lat="48.74487" lon="-3.29418">
        <ele>37.63</ele>
        <time>2013-05-24T15:02:49Z</time>
      </trkpt>
      <trkpt lat="48.74456" lon="-3.29422">
        <ele>39.55</ele>
        <time>2013-05-24T15:02:55Z</time>
      </trkpt>
      <trkpt lat="48.74446" lon="-3.29424">
        <ele>39.07</ele>
        <time>2013-05-24T15:02:57Z</time>
      </trkpt>
      <trkpt lat="48.74384" lon="-3.29427">
        <ele>41.95</ele>
        <time>2013-05-24T15:03:08Z</time>
      </trkpt>
      <trkpt lat="48.74343" lon="-3.29441">
        <ele>43.88</ele>
        <time>2013-05-24T15:03:15Z</time>
      </trkpt>
      <trkpt lat="48.74248" lon="-3.29492">
        <ele>45.32</ele>
        <time>2013-05-24T15:03:32Z</time>
      </trkpt>
      <trkpt lat="48.74182" lon="-3.29516">
        <ele>46.76</ele>
        <time>2013-05-24T15:03:44Z</time>
      </trkpt>
      <trkpt lat="48.74176" lon="-3.29518">
        <ele>46.28</ele>
        <time>2013-05-24T15:03:45Z</time>
      </trkpt>
      <trkpt lat="48.74169" lon="-3.2952">
        <ele>45.8</ele>
        <time>2013-05-24T15:03:46Z</time>
      </trkpt>
      <trkpt lat="48.74163" lon="-3.29523">
        <ele>45.8</ele>
        <time>2013-05-24T15:03:47Z</time>
      </trkpt>
      <trkpt lat="48.74156" lon="-3.29527">
        <ele>45.32</ele>
        <time>2013-05-24T15:03:48Z</time>
      </trkpt>
      <trkpt lat="48.74098" lon="-3.29579">
        <ele>42.92</ele>
        <time>2013-05-24T15:03:57Z</time>
      </trkpt>
      <trkpt lat="48.73996" lon="-3.29678">
        <ele>40.99</ele>
        <time>2013-05-24T15:04:11Z</time>
      </trkpt>
      <trkpt lat="48.73962" lon="-3.29697">
        <ele>38.59</ele>
        <time>2013-05-24T15:04:15Z</time>
      </trkpt>
      <trkpt lat="48.73904" lon="-3.29715">
        <ele>37.63</ele>
        <time>2013-05-24T15:04:22Z</time>
      </trkpt>
      <trkpt lat="48.73896" lon="-3.2972">
        <ele>37.15</ele>
        <time>2013-05-24T15:04:23Z</time>
      </trkpt>
      <trkpt lat="48.73889" lon="-3.29727">
        <ele>37.63</ele>
        <time>2013-05-24T15:04:24Z</time>
      </trkpt>
      <trkpt lat="48.73828" lon="-3.29802">
        <ele>34.26</ele>
        <time>2013-05-24T15:04:34Z</time>
      </trkpt>
      <trkpt lat="48.73756" lon="-3.29859">
        <ele>35.71</ele>
        <time>2013-05-24T15:04:46Z</time>
      </trkpt>
      <trkpt lat="48.73729" lon="-3.29863">
        <ele>36.19</ele>
        <time>2013-05-24T15:04:50Z</time>
      </trkpt>
      <trkpt lat="48.73722" lon="-3.29866">
        <ele>35.71</ele>
        <time>2013-05-24T15:04:51Z</time>
      </trkpt>
      <trkpt lat="48.73716" lon="-3.2987">
        <ele>36.19</ele>
        <time>2013-05-24T15:04:52Z</time>
      </trkpt>
      <trkpt lat="48.7371" lon="-3.29875">
        <ele>36.19</ele>
        <time>2013-05-24T15:04:53Z</time>
      </trkpt>
      <trkpt lat="48.73704" lon="-3.29881">
        <ele>36.19</ele>
        <time>2013-05-24T15:04:54Z</time>
      </trkpt>
      <trkpt lat="48.73699" lon="-3.29888">
        <ele>36.19</ele>
        <time>2013-05-24T15:04:55Z</time>
      </trkpt>
      <trkpt lat="48.73695" lon="-3.29896">
        <ele>36.19</ele>
        <time>2013-05-24T15:04:56Z</time>
      </trkpt>
      <trkpt lat="48.73662" lon="-3.29948">
        <ele>37.63</ele>
        <time>2013-05-24T15:05:03Z</time>
      </trkpt>
      <trkpt lat="48.73578" lon="-3.30023">
        <ele>37.63</ele>
        <time>2013-05-24T15:05:18Z</time>
      </trkpt>
      <trkpt lat="48.73538" lon="-3.30046">
        <ele>37.63</ele>
        <time>2013-05-24T15:05:25Z</time>
      </trkpt>
      <trkpt lat="48.73462" lon="-3.30072">
        <ele>37.15</ele>
        <time>2013-05-24T15:05:37Z</time>
      </trkpt>
      <trkpt lat="48.73423" lon="-3.30067">
        <ele>36.67</ele>
        <time>2013-05-24T15:05:42Z</time>
      </trkpt>
      <trkpt lat="48.73416" lon="-3.30067">
        <ele>37.15</ele>
        <time>2013-05-24T15:05:43Z</time>
      </trkpt>
      <trkpt lat="48.73409" lon="-3.30067">
        <ele>37.15</ele>
        <time>2013-05-24T15:05:44Z</time>
      </trkpt>
      <trkpt lat="48.73401" lon="-3.30068">
        <ele>37.15</ele>
        <time>2013-05-24T15:05:45Z</time>
      </trkpt>
      <trkpt lat="48.73394" lon="-3.30071">
        <ele>36.67</ele>
        <time>2013-05-24T15:05:46Z</time>
      </trkpt>
      <trkpt lat="48.73387" lon="-3.30075">
        <ele>35.71</ele>
        <time>2013-05-24T15:05:47Z</time>
      </trkpt>
      <trkpt lat="48.73381" lon="-3.30081">
        <ele>35.71</ele>
        <time>2013-05-24T15:05:48Z</time>
      </trkpt>
      <trkpt lat="48.73375" lon="-3.30089">
        <ele>35.71</ele>
        <time>2013-05-24T15:05:49Z</time>
      </trkpt>
      <trkpt lat="48.7337" lon="-3.30097">
        <ele>36.19</ele>
        <time>2013-05-24T15:05:50Z</time>
      </trkpt>
      <trkpt lat="48.73365" lon="-3.30104">
        <ele>36.19</ele>
        <time>2013-05-24T15:05:51Z</time>
      </trkpt>
      <trkpt lat="48.7336" lon="-3.3011">
        <ele>36.19</ele>
        <time>2013-05-24T15:05:52Z</time>
      </trkpt>
      <trkpt lat="48.73354" lon="-3.30114">
        <ele>35.71</ele>
        <time>2013-05-24T15:05:53Z</time>
      </trkpt>
      <trkpt lat="48.73348" lon="-3.30117">
        <ele>35.71</ele>
        <time>2013-05-24T15:05:54Z</time>
      </trkpt>
      <trkpt lat="48.73341" lon="-3.30119">
        <ele>35.71</ele>
        <time>2013-05-24T15:05:55Z</time>
      </trkpt>
      <trkpt lat="48.73335" lon="-3.3012">
        <ele>35.23</ele>
        <time>2013-05-24T15:05:56Z</time>
      </trkpt>
      <trkpt lat="48.73328" lon="-3.3012">
        <ele>34.74</ele>
        <time>2013-05-24T15:05:57Z</time>
      </trkpt>
      <trkpt lat="48.73314" lon="-3.30121">
        <ele>34.74</ele>
        <time>2013-05-24T15:05:59Z</time>
      </trkpt>
      <trkpt lat="48.73285" lon="-3.30134">
        <ele>35.71</ele>
        <time>2013-05-24T15:06:03Z</time>
      </trkpt>
      <trkpt lat="48.73281" lon="-3.30139">
        <ele>35.71</ele>
        <time>2013-05-24T15:06:04Z</time>
      </trkpt>
      <trkpt lat="48.73205" lon="-3.30236">
        <ele>37.63</ele>
        <time>2013-05-24T15:06:21Z</time>
      </trkpt>
      <trkpt lat="48.73131" lon="-3.30315">
        <ele>37.15</ele>
        <time>2013-05-24T15:06:35Z</time>
      </trkpt>
      <trkpt lat="48.7312" lon="-3.30322">
        <ele>36.67</ele>
        <time>2013-05-24T15:06:37Z</time>
      </trkpt>
      <trkpt lat="48.73087" lon="-3.30344">
        <ele>39.55</ele>
        <time>2013-05-24T15:06:43Z</time>
      </trkpt>
      <trkpt lat="48.73082" lon="-3.30347">
        <ele>39.07</ele>
        <time>2013-05-24T15:06:44Z</time>
      </trkpt>
      <trkpt lat="48.73052" lon="-3.30361">
        <ele>40.03</ele>
        <time>2013-05-24T15:06:49Z</time>
      </trkpt>
      <trkpt lat="48.73046" lon="-3.30361">
        <ele>40.03</ele>
        <time>2013-05-24T15:06:50Z</time>
      </trkpt>
      <trkpt lat="48.7304" lon="-3.30361">
        <ele>40.03</ele>
        <time>2013-05-24T15:06:51Z</time>
      </trkpt>
      <trkpt lat="48.73033" lon="-3.3036">
        <ele>40.51</ele>
        <time>2013-05-24T15:06:52Z</time>
      </trkpt>
      <trkpt lat="48.73028" lon="-3.30357">
        <ele>40.99</ele>
        <time>2013-05-24T15:06:53Z</time>
      </trkpt>
      <trkpt lat="48.72976" lon="-3.30339">
        <ele>41.47</ele>
        <time>2013-05-24T15:07:02Z</time>
      </trkpt>
      <trkpt lat="48.7297" lon="-3.30339">
        <ele>40.99</ele>
        <time>2013-05-24T15:07:03Z</time>
      </trkpt>
      <trkpt lat="48.72964" lon="-3.3034">
        <ele>41.47</ele>
        <time>2013-05-24T15:07:04Z</time>
      </trkpt>
      <trkpt lat="48.72958" lon="-3.30343">
        <ele>41.47</ele>
        <time>2013-05-24T15:07:05Z</time>
      </trkpt>
      <trkpt lat="48.72953" lon="-3.30346">
        <ele>41.95</ele>
        <time>2013-05-24T15:07:06Z</time>
      </trkpt>
      <trkpt lat="48.72948" lon="-3.30348">
        <ele>42.44</ele>
        <time>2013-05-24T15:07:07Z</time>
      </trkpt>
      <trkpt lat="48.72943" lon="-3.30352">
        <ele>42.44</ele>
        <time>2013-05-24T15:07:08Z</time>
      </trkpt>
      <trkpt lat="48.72938" lon="-3.30356">
        <ele>42.92</ele>
        <time>2013-05-24T15:07:09Z</time>
      </trkpt>
      <trkpt lat="48.72934" lon="-3.30361">
        <ele>43.4</ele>
        <time>2013-05-24T15:07:10Z</time>
      </trkpt>
      <trkpt lat="48.7293" lon="-3.30368">
        <ele>43.88</ele>
        <time>2013-05-24T15:07:11Z</time>
      </trkpt>
      <trkpt lat="48.72928" lon="-3.30375">
        <ele>44.84</ele>
        <time>2013-05-24T15:07:12Z</time>
      </trkpt>
      <trkpt lat="48.72925" lon="-3.30382">
        <ele>44.84</ele>
        <time>2013-05-24T15:07:13Z</time>
      </trkpt>
      <trkpt lat="48.72924" lon="-3.30389">
        <ele>45.8</ele>
        <time>2013-05-24T15:07:14Z</time>
      </trkpt>
      <trkpt lat="48.72922" lon="-3.30396">
        <ele>45.8</ele>
        <time>2013-05-24T15:07:15Z</time>
      </trkpt>
      <trkpt lat="48.72921" lon="-3.30403">
        <ele>46.28</ele>
        <time>2013-05-24T15:07:16Z</time>
      </trkpt>
      <trkpt lat="48.7292" lon="-3.3041">
        <ele>46.28</ele>
        <time>2013-05-24T15:07:17Z</time>
      </trkpt>
      <trkpt lat="48.7292" lon="-3.30417">
        <ele>46.28</ele>
        <time>2013-05-24T15:07:18Z</time>
      </trkpt>
      <trkpt lat="48.7292" lon="-3.30425">
        <ele>46.76</ele>
        <time>2013-05-24T15:07:19Z</time>
      </trkpt>
      <trkpt lat="48.72903" lon="-3.30538">
        <ele>48.2</ele>
        <time>2013-05-24T15:07:33Z</time>
      </trkpt>
      <trkpt lat="48.72868" lon="-3.30647">
        <ele>48.68</ele>
        <time>2013-05-24T15:07:46Z</time>
      </trkpt>
      <trkpt lat="48.72827" lon="-3.30748">
        <ele>51.09</ele>
        <time>2013-05-24T15:07:59Z</time>
      </trkpt>
      <trkpt lat="48.72782" lon="-3.30878">
        <ele>51.57</ele>
        <time>2013-05-24T15:08:16Z</time>
      </trkpt>
      <trkpt lat="48.72749" lon="-3.30964">
        <ele>54.93</ele>
        <time>2013-05-24T15:08:28Z</time>
      </trkpt>
      <trkpt lat="48.72747" lon="-3.30972">
        <ele>54.93</ele>
        <time>2013-05-24T15:08:29Z</time>
      </trkpt>
      <trkpt lat="48.72722" lon="-3.31037">
        <ele>55.89</ele>
        <time>2013-05-24T15:08:38Z</time>
      </trkpt>
      <trkpt lat="48.72705" lon="-3.31071">
        <ele>56.37</ele>
        <time>2013-05-24T15:08:43Z</time>
      </trkpt>
      <trkpt lat="48.72682" lon="-3.31113">
        <ele>57.34</ele>
        <time>2013-05-24T15:08:49Z</time>
      </trkpt>
      <trkpt lat="48.72679" lon="-3.3112">
        <ele>57.34</ele>
        <time>2013-05-24T15:08:50Z</time>
      </trkpt>
      <trkpt lat="48.72667" lon="-3.31158">
        <ele>57.34</ele>
        <time>2013-05-24T15:08:55Z</time>
      </trkpt>
      <trkpt lat="48.72644" lon="-3.31263">
        <ele>54.93</ele>
        <time>2013-05-24T15:09:07Z</time>
      </trkpt>
      <trkpt lat="48.72635" lon="-3.31297">
        <ele>53.97</ele>
        <time>2013-05-24T15:09:10Z</time>
      </trkpt>
      <trkpt lat="48.7263" lon="-3.31308">
        <ele>53.01</ele>
        <time>2013-05-24T15:09:11Z</time>
      </trkpt>
      <trkpt lat="48.72622" lon="-3.31318">
        <ele>51.57</ele>
        <time>2013-05-24T15:09:12Z</time>
      </trkpt>
      <trkpt lat="48.72613" lon="-3.31328">
        <ele>49.65</ele>
        <time>2013-05-24T15:09:13Z</time>
      </trkpt>
      <trkpt lat="48.72602" lon="-3.31336">
        <ele>48.2</ele>
        <time>2013-05-24T15:09:14Z</time>
      </trkpt>
      <trkpt lat="48.72591" lon="-3.31344">
        <ele>46.76</ele>
        <time>2013-05-24T15:09:15Z</time>
      </trkpt>
      <trkpt lat="48.72555" lon="-3.31362">
        <ele>44.84</ele>
        <time>2013-05-24T15:09:18Z</time>
      </trkpt>
      <trkpt lat="48.72466" lon="-3.3142">
        <ele>44.84</ele>
        <time>2013-05-24T15:09:27Z</time>
      </trkpt>
      <trkpt lat="48.7246" lon="-3.31429">
        <ele>44.84</ele>
        <time>2013-05-24T15:09:28Z</time>
      </trkpt>
      <trkpt lat="48.7243" lon="-3.31478">
        <ele>46.76</ele>
        <time>2013-05-24T15:09:35Z</time>
      </trkpt>
      <trkpt lat="48.7242" lon="-3.31492">
        <ele>47.72</ele>
        <time>2013-05-24T15:09:38Z</time>
      </trkpt>
      <trkpt lat="48.72391" lon="-3.31545">
        <ele>51.09</ele>
        <time>2013-05-24T15:09:49Z</time>
      </trkpt>
      <trkpt lat="48.72356" lon="-3.31611">
        <ele>54.45</ele>
        <time>2013-05-24T15:10:02Z</time>
      </trkpt>
      <trkpt lat="48.72348" lon="-3.31629">
        <ele>55.89</ele>
        <time>2013-05-24T15:10:05Z</time>
      </trkpt>
      <trkpt lat="48.72343" lon="-3.31641">
        <ele>55.89</ele>
        <time>2013-05-24T15:10:07Z</time>
      </trkpt>
      <trkpt lat="48.72341" lon="-3.31648">
        <ele>56.37</ele>
        <time>2013-05-24T15:10:08Z</time>
      </trkpt>
      <trkpt lat="48.72335" lon="-3.31675">
        <ele>57.34</ele>
        <time>2013-05-24T15:10:12Z</time>
      </trkpt>
      <trkpt lat="48.72332" lon="-3.31727">
        <ele>58.78</ele>
        <time>2013-05-24T15:10:19Z</time>
      </trkpt>
      <trkpt lat="48.72326" lon="-3.31762">
        <ele>59.74</ele>
        <time>2013-05-24T15:10:24Z</time>
      </trkpt>
      <trkpt lat="48.72323" lon="-3.31769">
        <ele>60.22</ele>
        <time>2013-05-24T15:10:25Z</time>
      </trkpt>
      <trkpt lat="48.72321" lon="-3.31775">
        <ele>61.18</ele>
        <time>2013-05-24T15:10:26Z</time>
      </trkpt>
      <trkpt lat="48.72318" lon="-3.31781">
        <ele>61.18</ele>
        <time>2013-05-24T15:10:27Z</time>
      </trkpt>
      <trkpt lat="48.72314" lon="-3.31786">
        <ele>61.18</ele>
        <time>2013-05-24T15:10:28Z</time>
      </trkpt>
      <trkpt lat="48.72284" lon="-3.3183">
        <ele>63.1</ele>
        <time>2013-05-24T15:10:37Z</time>
      </trkpt>
      <trkpt lat="48.72281" lon="-3.31835">
        <ele>63.1</ele>
        <time>2013-05-24T15:10:38Z</time>
      </trkpt>
      <trkpt lat="48.72268" lon="-3.31863">
        <ele>64.55</ele>
        <time>2013-05-24T15:10:43Z</time>
      </trkpt>
      <trkpt lat="48.72245" lon="-3.31932">
        <ele>67.91</ele>
        <time>2013-05-24T15:10:54Z</time>
      </trkpt>
      <trkpt lat="48.72241" lon="-3.31945">
        <ele>68.87</ele>
        <time>2013-05-24T15:10:56Z</time>
      </trkpt>
      <trkpt lat="48.72229" lon="-3.31995">
        <ele>71.27</ele>
        <time>2013-05-24T15:11:04Z</time>
      </trkpt>
      <trkpt lat="48.7221" lon="-3.32113">
        <ele>74.64</ele>
        <time>2013-05-24T15:11:22Z</time>
      </trkpt>
      <trkpt lat="48.72212" lon="-3.32235">
        <ele>76.08</ele>
        <time>2013-05-24T15:11:39Z</time>
      </trkpt>
      <trkpt lat="48.72207" lon="-3.3236">
        <ele>77.04</ele>
        <time>2013-05-24T15:11:54Z</time>
      </trkpt>
      <trkpt lat="48.72205" lon="-3.32417">
        <ele>77.04</ele>
        <time>2013-05-24T15:12:01Z</time>
      </trkpt>
      <trkpt lat="48.72208" lon="-3.32545">
        <ele>76.08</ele>
        <time>2013-05-24T15:12:16Z</time>
      </trkpt>
      <trkpt lat="48.7221" lon="-3.32597">
        <ele>77.04</ele>
        <time>2013-05-24T15:12:22Z</time>
      </trkpt>
      <trkpt lat="48.72223" lon="-3.32708">
        <ele>77.04</ele>
        <time>2013-05-24T15:12:35Z</time>
      </trkpt>
      <trkpt lat="48.72241" lon="-3.32781">
        <ele>80.41</ele>
        <time>2013-05-24T15:12:44Z</time>
      </trkpt>
      <trkpt lat="48.72253" lon="-3.32919">
        <ele>80.41</ele>
        <time>2013-05-24T15:13:00Z</time>
      </trkpt>
      <trkpt lat="48.72274" lon="-3.33062">
        <ele>82.33</ele>
        <time>2013-05-24T15:13:17Z</time>
      </trkpt>
      <trkpt lat="48.72292" lon="-3.33153">
        <ele>85.69</ele>
        <time>2013-05-24T15:13:29Z</time>
      </trkpt>
      <trkpt lat="48.72301" lon="-3.33188">
        <ele>86.66</ele>
        <time>2013-05-24T15:13:34Z</time>
      </trkpt>
      <trkpt lat="48.72303" lon="-3.33195">
        <ele>86.66</ele>
        <time>2013-05-24T15:13:35Z</time>
      </trkpt>
      <trkpt lat="48.72304" lon="-3.33202">
        <ele>87.14</ele>
        <time>2013-05-24T15:13:36Z</time>
      </trkpt>
      <trkpt lat="48.72317" lon="-3.3329">
        <ele>90.02</ele>
        <time>2013-05-24T15:13:49Z</time>
      </trkpt>
      <trkpt lat="48.72318" lon="-3.33326">
        <ele>90.98</ele>
        <time>2013-05-24T15:13:54Z</time>
      </trkpt>
      <trkpt lat="48.72331" lon="-3.33442">
        <ele>92.42</ele>
        <time>2013-05-24T15:14:10Z</time>
      </trkpt>
      <trkpt lat="48.72332" lon="-3.3345">
        <ele>92.42</ele>
        <time>2013-05-24T15:14:11Z</time>
      </trkpt>
      <trkpt lat="48.72342" lon="-3.33545">
        <ele>93.39</ele>
        <time>2013-05-24T15:14:23Z</time>
      </trkpt>
      <trkpt lat="48.72376" lon="-3.33644">
        <ele>93.39</ele>
        <time>2013-05-24T15:14:37Z</time>
      </trkpt>
      <trkpt lat="48.72405" lon="-3.3373">
        <ele>94.35</ele>
        <time>2013-05-24T15:14:49Z</time>
      </trkpt>
      <trkpt lat="48.72412" lon="-3.33753">
        <ele>92.9</ele>
        <time>2013-05-24T15:14:52Z</time>
      </trkpt>
      <trkpt lat="48.72457" lon="-3.33876">
        <ele>91.94</ele>
        <time>2013-05-24T15:15:09Z</time>
      </trkpt>
      <trkpt lat="48.725" lon="-3.33991">
        <ele>91.46</ele>
        <time>2013-05-24T15:15:24Z</time>
      </trkpt>
      <trkpt lat="48.7253" lon="-3.34074">
        <ele>90.5</ele>
        <time>2013-05-24T15:15:35Z</time>
      </trkpt>
      <trkpt lat="48.72582" lon="-3.34212">
        <ele>89.06</ele>
        <time>2013-05-24T15:15:52Z</time>
      </trkpt>
      <trkpt lat="48.72621" lon="-3.3429">
        <ele>87.14</ele>
        <time>2013-05-24T15:16:02Z</time>
      </trkpt>
      <trkpt lat="48.72694" lon="-3.34429">
        <ele>85.21</ele>
        <time>2013-05-24T15:16:19Z</time>
      </trkpt>
      <trkpt lat="48.72703" lon="-3.34446">
        <ele>83.29</ele>
        <time>2013-05-24T15:16:21Z</time>
      </trkpt>
      <trkpt lat="48.72745" lon="-3.34546">
        <ele>80.41</ele>
        <time>2013-05-24T15:16:32Z</time>
      </trkpt>
      <trkpt lat="48.72769" lon="-3.34596">
        <ele>77.04</ele>
        <time>2013-05-24T15:16:37Z</time>
      </trkpt>
      <trkpt lat="48.72807" lon="-3.34685">
        <ele>73.68</ele>
        <time>2013-05-24T15:16:45Z</time>
      </trkpt>
      <trkpt lat="48.72817" lon="-3.34708">
        <ele>71.76</ele>
        <time>2013-05-24T15:16:47Z</time>
      </trkpt>
      <trkpt lat="48.72836" lon="-3.34769">
        <ele>69.35</ele>
        <time>2013-05-24T15:16:52Z</time>
      </trkpt>
      <trkpt lat="48.72838" lon="-3.34783">
        <ele>68.87</ele>
        <time>2013-05-24T15:16:53Z</time>
      </trkpt>
      <trkpt lat="48.72843" lon="-3.34837">
        <ele>65.99</ele>
        <time>2013-05-24T15:16:57Z</time>
      </trkpt>
      <trkpt lat="48.72847" lon="-3.34961">
        <ele>61.18</ele>
        <time>2013-05-24T15:17:06Z</time>
      </trkpt>
      <trkpt lat="48.72847" lon="-3.34991">
        <ele>57.82</ele>
        <time>2013-05-24T15:17:08Z</time>
      </trkpt>
      <trkpt lat="48.72845" lon="-3.35039">
        <ele>53.97</ele>
        <time>2013-05-24T15:17:11Z</time>
      </trkpt>
      <trkpt lat="48.72845" lon="-3.35072">
        <ele>52.05</ele>
        <time>2013-05-24T15:17:13Z</time>
      </trkpt>
      <trkpt lat="48.72847" lon="-3.35089">
        <ele>51.09</ele>
        <time>2013-05-24T15:17:14Z</time>
      </trkpt>
      <trkpt lat="48.7285" lon="-3.35105">
        <ele>50.61</ele>
        <time>2013-05-24T15:17:15Z</time>
      </trkpt>
      <trkpt lat="48.72854" lon="-3.35122">
        <ele>49.16</ele>
        <time>2013-05-24T15:17:16Z</time>
      </trkpt>
      <trkpt lat="48.72858" lon="-3.35138">
        <ele>48.68</ele>
        <time>2013-05-24T15:17:17Z</time>
      </trkpt>
      <trkpt lat="48.72863" lon="-3.35153">
        <ele>47.72</ele>
        <time>2013-05-24T15:17:18Z</time>
      </trkpt>
      <trkpt lat="48.72866" lon="-3.3517">
        <ele>47.24</ele>
        <time>2013-05-24T15:17:19Z</time>
      </trkpt>
      <trkpt lat="48.72868" lon="-3.35186">
        <ele>46.28</ele>
        <time>2013-05-24T15:17:20Z</time>
      </trkpt>
      <trkpt lat="48.72868" lon="-3.35202">
        <ele>45.8</ele>
        <time>2013-05-24T15:17:21Z</time>
      </trkpt>
      <trkpt lat="48.72867" lon="-3.35218">
        <ele>45.8</ele>
        <time>2013-05-24T15:17:22Z</time>
      </trkpt>
      <trkpt lat="48.72864" lon="-3.35234">
        <ele>44.84</ele>
        <time>2013-05-24T15:17:23Z</time>
      </trkpt>
      <trkpt lat="48.72861" lon="-3.35248">
        <ele>44.36</ele>
        <time>2013-05-24T15:17:24Z</time>
      </trkpt>
      <trkpt lat="48.72857" lon="-3.35263">
        <ele>44.36</ele>
        <time>2013-05-24T15:17:25Z</time>
      </trkpt>
      <trkpt lat="48.72816" lon="-3.35389">
        <ele>44.36</ele>
        <time>2013-05-24T15:17:36Z</time>
      </trkpt>
      <trkpt lat="48.72781" lon="-3.35483">
        <ele>47.72</ele>
        <time>2013-05-24T15:17:47Z</time>
      </trkpt>
      <trkpt lat="48.72778" lon="-3.35489">
        <ele>47.72</ele>
        <time>2013-05-24T15:17:48Z</time>
      </trkpt>
      <trkpt lat="48.72749" lon="-3.35545">
        <ele>51.09</ele>
        <time>2013-05-24T15:17:57Z</time>
      </trkpt>
      <trkpt lat="48.72747" lon="-3.35551">
        <ele>51.09</ele>
        <time>2013-05-24T15:17:58Z</time>
      </trkpt>
      <trkpt lat="48.72745" lon="-3.35558">
        <ele>50.13</ele>
        <time>2013-05-24T15:17:59Z</time>
      </trkpt>
      <trkpt lat="48.72743" lon="-3.35565">
        <ele>50.13</ele>
        <time>2013-05-24T15:18:00Z</time>
      </trkpt>
      <trkpt lat="48.72741" lon="-3.35572">
        <ele>50.61</ele>
        <time>2013-05-24T15:18:01Z</time>
      </trkpt>
      <trkpt lat="48.72724" lon="-3.35684">
        <ele>48.2</ele>
        <time>2013-05-24T15:18:13Z</time>
      </trkpt>
      <trkpt lat="48.72708" lon="-3.35753">
        <ele>45.32</ele>
        <time>2013-05-24T15:18:20Z</time>
      </trkpt>
      <trkpt lat="48.72705" lon="-3.35764">
        <ele>45.32</ele>
        <time>2013-05-24T15:18:21Z</time>
      </trkpt>
      <trkpt lat="48.72697" lon="-3.35812">
        <ele>41.95</ele>
        <time>2013-05-24T15:18:25Z</time>
      </trkpt>
      <trkpt lat="48.72692" lon="-3.35853">
        <ele>39.55</ele>
        <time>2013-05-24T15:18:28Z</time>
      </trkpt>
      <trkpt lat="48.7269" lon="-3.35882">
        <ele>39.07</ele>
        <time>2013-05-24T15:18:30Z</time>
      </trkpt>
      <trkpt lat="48.72691" lon="-3.35897">
        <ele>38.59</ele>
        <time>2013-05-24T15:18:31Z</time>
      </trkpt>
      <trkpt lat="48.72692" lon="-3.35913">
        <ele>38.11</ele>
        <time>2013-05-24T15:18:32Z</time>
      </trkpt>
      <trkpt lat="48.727" lon="-3.3598">
        <ele>38.59</ele>
        <time>2013-05-24T15:18:37Z</time>
      </trkpt>
      <trkpt lat="48.727" lon="-3.36032">
        <ele>41.47</ele>
        <time>2013-05-24T15:18:43Z</time>
      </trkpt>
      <trkpt lat="48.72698" lon="-3.3605">
        <ele>43.4</ele>
        <time>2013-05-24T15:18:46Z</time>
      </trkpt>
      <trkpt lat="48.72697" lon="-3.36075">
        <ele>45.32</ele>
        <time>2013-05-24T15:18:50Z</time>
      </trkpt>
      <trkpt lat="48.72696" lon="-3.36081">
        <ele>45.32</ele>
        <time>2013-05-24T15:18:51Z</time>
      </trkpt>
      <trkpt lat="48.7269" lon="-3.36116">
        <ele>49.16</ele>
        <time>2013-05-24T15:18:57Z</time>
      </trkpt>
      <trkpt lat="48.72681" lon="-3.36161">
        <ele>50.13</ele>
        <time>2013-05-24T15:19:05Z</time>
      </trkpt>
      <trkpt lat="48.72672" lon="-3.36206">
        <ele>53.01</ele>
        <time>2013-05-24T15:19:13Z</time>
      </trkpt>
      <trkpt lat="48.72665" lon="-3.36225">
        <ele>54.93</ele>
        <time>2013-05-24T15:19:17Z</time>
      </trkpt>
      <trkpt lat="48.72649" lon="-3.36265">
        <ele>56.86</ele>
        <time>2013-05-24T15:19:26Z</time>
      </trkpt>
      <trkpt lat="48.72644" lon="-3.36278">
        <ele>57.34</ele>
        <time>2013-05-24T15:19:28Z</time>
      </trkpt>
      <trkpt lat="48.72606" lon="-3.36348">
        <ele>60.7</ele>
        <time>2013-05-24T15:19:41Z</time>
      </trkpt>
      <trkpt lat="48.726" lon="-3.3636">
        <ele>60.7</ele>
        <time>2013-05-24T15:19:43Z</time>
      </trkpt>
      <trkpt lat="48.72589" lon="-3.36417">
        <ele>61.18</ele>
        <time>2013-05-24T15:19:51Z</time>
      </trkpt>
      <trkpt lat="48.72588" lon="-3.36447">
        <ele>61.66</ele>
        <time>2013-05-24T15:19:55Z</time>
      </trkpt>
      <trkpt lat="48.72588" lon="-3.36454">
        <ele>62.14</ele>
        <time>2013-05-24T15:19:56Z</time>
      </trkpt>
      <trkpt lat="48.7259" lon="-3.36461">
        <ele>62.14</ele>
        <time>2013-05-24T15:19:57Z</time>
      </trkpt>
      <trkpt lat="48.72626" lon="-3.36557">
        <ele>63.58</ele>
        <time>2013-05-24T15:20:12Z</time>
      </trkpt>
      <trkpt lat="48.72658" lon="-3.36674">
        <ele>62.62</ele>
        <time>2013-05-24T15:20:26Z</time>
      </trkpt>
      <trkpt lat="48.72656" lon="-3.36723">
        <ele>63.58</ele>
        <time>2013-05-24T15:20:31Z</time>
      </trkpt>
      <trkpt lat="48.72634" lon="-3.36887">
        <ele>65.03</ele>
        <time>2013-05-24T15:20:49Z</time>
      </trkpt>
      <trkpt lat="48.72635" lon="-3.37003">
        <ele>68.39</ele>
        <time>2013-05-24T15:21:03Z</time>
      </trkpt>
      <trkpt lat="48.72678" lon="-3.37098">
        <ele>69.83</ele>
        <time>2013-05-24T15:21:18Z</time>
      </trkpt>
      <trkpt lat="48.72732" lon="-3.37169">
        <ele>71.76</ele>
        <time>2013-05-24T15:21:31Z</time>
      </trkpt>
      <trkpt lat="48.72751" lon="-3.37183">
        <ele>72.72</ele>
        <time>2013-05-24T15:21:35Z</time>
      </trkpt>
      <trkpt lat="48.72773" lon="-3.37192">
        <ele>72.24</ele>
        <time>2013-05-24T15:21:39Z</time>
      </trkpt>
      <trkpt lat="48.72779" lon="-3.37193">
        <ele>71.76</ele>
        <time>2013-05-24T15:21:40Z</time>
      </trkpt>
      <trkpt lat="48.72865" lon="-3.37225">
        <ele>74.64</ele>
        <time>2013-05-24T15:21:56Z</time>
      </trkpt>
      <trkpt lat="48.72884" lon="-3.3724">
        <ele>74.64</ele>
        <time>2013-05-24T15:22:00Z</time>
      </trkpt>
      <trkpt lat="48.72958" lon="-3.37315">
        <ele>75.6</ele>
        <time>2013-05-24T15:22:17Z</time>
      </trkpt>
      <trkpt lat="48.72961" lon="-3.37321">
        <ele>76.56</ele>
        <time>2013-05-24T15:22:18Z</time>
      </trkpt>
      <trkpt lat="48.72964" lon="-3.37328">
        <ele>75.6</ele>
        <time>2013-05-24T15:22:19Z</time>
      </trkpt>
      <trkpt lat="48.72966" lon="-3.37335">
        <ele>76.08</ele>
        <time>2013-05-24T15:22:20Z</time>
      </trkpt>
      <trkpt lat="48.72968" lon="-3.37342">
        <ele>76.08</ele>
        <time>2013-05-24T15:22:21Z</time>
      </trkpt>
      <trkpt lat="48.7297" lon="-3.3735">
        <ele>76.08</ele>
        <time>2013-05-24T15:22:22Z</time>
      </trkpt>
      <trkpt lat="48.72971" lon="-3.37358">
        <ele>76.08</ele>
        <time>2013-05-24T15:22:23Z</time>
      </trkpt>
      <trkpt lat="48.72972" lon="-3.37366">
        <ele>75.6</ele>
        <time>2013-05-24T15:22:24Z</time>
      </trkpt>
      <trkpt lat="48.72972" lon="-3.37373">
        <ele>75.6</ele>
        <time>2013-05-24T15:22:25Z</time>
      </trkpt>
      <trkpt lat="48.72972" lon="-3.37381">
        <ele>75.6</ele>
        <time>2013-05-24T15:22:26Z</time>
      </trkpt>
      <trkpt lat="48.72972" lon="-3.37388">
        <ele>75.6</ele>
        <time>2013-05-24T15:22:27Z</time>
      </trkpt>
      <trkpt lat="48.72971" lon="-3.37395">
        <ele>76.08</ele>
        <time>2013-05-24T15:22:28Z</time>
      </trkpt>
      <trkpt lat="48.72947" lon="-3.37503">
        <ele>77.04</ele>
        <time>2013-05-24T15:22:42Z</time>
      </trkpt>
      <trkpt lat="48.7293" lon="-3.37583">
        <ele>78</ele>
        <time>2013-05-24T15:22:52Z</time>
      </trkpt>
      <trkpt lat="48.72929" lon="-3.37591">
        <ele>78</ele>
        <time>2013-05-24T15:22:53Z</time>
      </trkpt>
      <trkpt lat="48.72929" lon="-3.37599">
        <ele>78.48</ele>
        <time>2013-05-24T15:22:54Z</time>
      </trkpt>
      <trkpt lat="48.72947" lon="-3.37678">
        <ele>79.93</ele>
        <time>2013-05-24T15:23:04Z</time>
      </trkpt>
      <trkpt lat="48.73006" lon="-3.37778">
        <ele>80.89</ele>
        <time>2013-05-24T15:23:19Z</time>
      </trkpt>
      <trkpt lat="48.7301" lon="-3.37786">
        <ele>80.89</ele>
        <time>2013-05-24T15:23:20Z</time>
      </trkpt>
      <trkpt lat="48.73013" lon="-3.37795">
        <ele>80.89</ele>
        <time>2013-05-24T15:23:21Z</time>
      </trkpt>
      <trkpt lat="48.73015" lon="-3.37805">
        <ele>81.37</ele>
        <time>2013-05-24T15:23:22Z</time>
      </trkpt>
      <trkpt lat="48.73037" lon="-3.37958">
        <ele>80.41</ele>
        <time>2013-05-24T15:23:39Z</time>
      </trkpt>
      <trkpt lat="48.7304" lon="-3.38087">
        <ele>80.89</ele>
        <time>2013-05-24T15:23:54Z</time>
      </trkpt>
      <trkpt lat="48.73036" lon="-3.38104">
        <ele>81.85</ele>
        <time>2013-05-24T15:23:56Z</time>
      </trkpt>
      <trkpt lat="48.73033" lon="-3.38112">
        <ele>81.37</ele>
        <time>2013-05-24T15:23:57Z</time>
      </trkpt>
      <trkpt lat="48.73029" lon="-3.3812">
        <ele>82.33</ele>
        <time>2013-05-24T15:23:58Z</time>
      </trkpt>
      <trkpt lat="48.73026" lon="-3.38127">
        <ele>82.81</ele>
        <time>2013-05-24T15:23:59Z</time>
      </trkpt>
      <trkpt lat="48.72965" lon="-3.38243">
        <ele>82.33</ele>
        <time>2013-05-24T15:24:14Z</time>
      </trkpt>
      <trkpt lat="48.72953" lon="-3.3828">
        <ele>83.29</ele>
        <time>2013-05-24T15:24:18Z</time>
      </trkpt>
      <trkpt lat="48.72929" lon="-3.38426">
        <ele>84.25</ele>
        <time>2013-05-24T15:24:33Z</time>
      </trkpt>
      <trkpt lat="48.7293" lon="-3.38436">
        <ele>85.21</ele>
        <time>2013-05-24T15:24:34Z</time>
      </trkpt>
      <trkpt lat="48.72931" lon="-3.38447">
        <ele>83.77</ele>
        <time>2013-05-24T15:24:35Z</time>
      </trkpt>
      <trkpt lat="48.72932" lon="-3.38457">
        <ele>82.33</ele>
        <time>2013-05-24T15:24:36Z</time>
      </trkpt>
      <trkpt lat="48.72932" lon="-3.38467">
        <ele>82.81</ele>
        <time>2013-05-24T15:24:37Z</time>
      </trkpt>
      <trkpt lat="48.72931" lon="-3.38477">
        <ele>82.81</ele>
        <time>2013-05-24T15:24:38Z</time>
      </trkpt>
      <trkpt lat="48.72929" lon="-3.38487">
        <ele>82.81</ele>
        <time>2013-05-24T15:24:39Z</time>
      </trkpt>
      <trkpt lat="48.72926" lon="-3.38496">
        <ele>83.77</ele>
        <time>2013-05-24T15:24:40Z</time>
      </trkpt>
      <trkpt lat="48.72923" lon="-3.38505">
        <ele>83.29</ele>
        <time>2013-05-24T15:24:41Z</time>
      </trkpt>
      <trkpt lat="48.72912" lon="-3.3854">
        <ele>84.25</ele>
        <time>2013-05-24T15:24:45Z</time>
      </trkpt>
      <trkpt lat="48.72911" lon="-3.38549">
        <ele>84.25</ele>
        <time>2013-05-24T15:24:46Z</time>
      </trkpt>
      <trkpt lat="48.72911" lon="-3.38559">
        <ele>84.73</ele>
        <time>2013-05-24T15:24:47Z</time>
      </trkpt>
      <trkpt lat="48.72912" lon="-3.38568">
        <ele>84.73</ele>
        <time>2013-05-24T15:24:48Z</time>
      </trkpt>
      <trkpt lat="48.72914" lon="-3.38577">
        <ele>84.73</ele>
        <time>2013-05-24T15:24:49Z</time>
      </trkpt>
      <trkpt lat="48.72917" lon="-3.38586">
        <ele>84.25</ele>
        <time>2013-05-24T15:24:50Z</time>
      </trkpt>
      <trkpt lat="48.72919" lon="-3.38595">
        <ele>83.29</ele>
        <time>2013-05-24T15:24:51Z</time>
      </trkpt>
      <trkpt lat="48.7292" lon="-3.38605">
        <ele>82.81</ele>
        <time>2013-05-24T15:24:52Z</time>
      </trkpt>
      <trkpt lat="48.72919" lon="-3.38627">
        <ele>83.29</ele>
        <time>2013-05-24T15:24:54Z</time>
      </trkpt>
      <trkpt lat="48.72923" lon="-3.38692">
        <ele>81.85</ele>
        <time>2013-05-24T15:25:00Z</time>
      </trkpt>
      <trkpt lat="48.72923" lon="-3.38704">
        <ele>81.85</ele>
        <time>2013-05-24T15:25:01Z</time>
      </trkpt>
      <trkpt lat="48.72921" lon="-3.38715">
        <ele>81.37</ele>
        <time>2013-05-24T15:25:02Z</time>
      </trkpt>
      <trkpt lat="48.72919" lon="-3.38725">
        <ele>81.85</ele>
        <time>2013-05-24T15:25:03Z</time>
      </trkpt>
      <trkpt lat="48.72916" lon="-3.38736">
        <ele>81.37</ele>
        <time>2013-05-24T15:25:04Z</time>
      </trkpt>
      <trkpt lat="48.72881" lon="-3.38841">
        <ele>81.85</ele>
        <time>2013-05-24T15:25:15Z</time>
      </trkpt>
      <trkpt lat="48.72865" lon="-3.3897">
        <ele>83.29</ele>
        <time>2013-05-24T15:25:29Z</time>
      </trkpt>
      <trkpt lat="48.72863" lon="-3.38988">
        <ele>83.77</ele>
        <time>2013-05-24T15:25:31Z</time>
      </trkpt>
      <trkpt lat="48.72846" lon="-3.39132">
        <ele>84.73</ele>
        <time>2013-05-24T15:25:48Z</time>
      </trkpt>
      <trkpt lat="48.72839" lon="-3.39295">
        <ele>85.69</ele>
        <time>2013-05-24T15:26:06Z</time>
      </trkpt>
      <trkpt lat="48.72835" lon="-3.3945">
        <ele>85.69</ele>
        <time>2013-05-24T15:26:22Z</time>
      </trkpt>
      <trkpt lat="48.7283" lon="-3.39579">
        <ele>87.14</ele>
        <time>2013-05-24T15:26:35Z</time>
      </trkpt>
      <trkpt lat="48.72853" lon="-3.39714">
        <ele>88.1</ele>
        <time>2013-05-24T15:26:49Z</time>
      </trkpt>
      <trkpt lat="48.7291" lon="-3.39826">
        <ele>88.58</ele>
        <time>2013-05-24T15:27:03Z</time>
      </trkpt>
      <trkpt lat="48.72957" lon="-3.3996">
        <ele>87.14</ele>
        <time>2013-05-24T15:27:18Z</time>
      </trkpt>
      <trkpt lat="48.72984" lon="-3.40098">
        <ele>85.21</ele>
        <time>2013-05-24T15:27:32Z</time>
      </trkpt>
      <trkpt lat="48.72989" lon="-3.4014">
        <ele>84.73</ele>
        <time>2013-05-24T15:27:36Z</time>
      </trkpt>
      <trkpt lat="48.73002" lon="-3.40189">
        <ele>83.77</ele>
        <time>2013-05-24T15:27:41Z</time>
      </trkpt>
      <trkpt lat="48.73011" lon="-3.4022">
        <ele>83.77</ele>
        <time>2013-05-24T15:27:44Z</time>
      </trkpt>
      <trkpt lat="48.73018" lon="-3.40263">
        <ele>83.29</ele>
        <time>2013-05-24T15:27:48Z</time>
      </trkpt>
      <trkpt lat="48.73025" lon="-3.40344">
        <ele>83.29</ele>
        <time>2013-05-24T15:27:56Z</time>
      </trkpt>
      <trkpt lat="48.73027" lon="-3.40353">
        <ele>83.29</ele>
        <time>2013-05-24T15:27:57Z</time>
      </trkpt>
      <trkpt lat="48.73029" lon="-3.40362">
        <ele>83.29</ele>
        <time>2013-05-24T15:27:58Z</time>
      </trkpt>
      <trkpt lat="48.73032" lon="-3.40371">
        <ele>83.29</ele>
        <time>2013-05-24T15:27:59Z</time>
      </trkpt>
      <trkpt lat="48.73035" lon="-3.4038">
        <ele>83.77</ele>
        <time>2013-05-24T15:28:00Z</time>
      </trkpt>
      <trkpt lat="48.73058" lon="-3.4048">
        <ele>84.25</ele>
        <time>2013-05-24T15:28:11Z</time>
      </trkpt>
      <trkpt lat="48.73063" lon="-3.40582">
        <ele>83.77</ele>
        <time>2013-05-24T15:28:22Z</time>
      </trkpt>
      <trkpt lat="48.73065" lon="-3.40591">
        <ele>83.77</ele>
        <time>2013-05-24T15:28:23Z</time>
      </trkpt>
      <trkpt lat="48.73068" lon="-3.406">
        <ele>85.21</ele>
        <time>2013-05-24T15:28:24Z</time>
      </trkpt>
      <trkpt lat="48.73077" lon="-3.40624">
        <ele>83.77</ele>
        <time>2013-05-24T15:28:27Z</time>
      </trkpt>
      <trkpt lat="48.73125" lon="-3.40745">
        <ele>81.85</ele>
        <time>2013-05-24T15:28:41Z</time>
      </trkpt>
      <trkpt lat="48.73134" lon="-3.40786">
        <ele>80.41</ele>
        <time>2013-05-24T15:28:45Z</time>
      </trkpt>
      <trkpt lat="48.73172" lon="-3.40952">
        <ele>81.37</ele>
        <time>2013-05-24T15:29:02Z</time>
      </trkpt>
      <trkpt lat="48.73196" lon="-3.41086">
        <ele>79.45</ele>
        <time>2013-05-24T15:29:16Z</time>
      </trkpt>
      <trkpt lat="48.73216" lon="-3.41286">
        <ele>78.48</ele>
        <time>2013-05-24T15:29:34Z</time>
      </trkpt>
      <trkpt lat="48.73219" lon="-3.41337">
        <ele>77.52</ele>
        <time>2013-05-24T15:29:39Z</time>
      </trkpt>
      <trkpt lat="48.73215" lon="-3.41503">
        <ele>78.48</ele>
        <time>2013-05-24T15:29:56Z</time>
      </trkpt>
      <trkpt lat="48.73217" lon="-3.41643">
        <ele>75.12</ele>
        <time>2013-05-24T15:30:08Z</time>
      </trkpt>
      <trkpt lat="48.73243" lon="-3.41796">
        <ele>72.72</ele>
        <time>2013-05-24T15:30:22Z</time>
      </trkpt>
      <trkpt lat="48.73274" lon="-3.41889">
        <ele>69.83</ele>
        <time>2013-05-24T15:30:31Z</time>
      </trkpt>
      <trkpt lat="48.73284" lon="-3.41909">
        <ele>69.83</ele>
        <time>2013-05-24T15:30:33Z</time>
      </trkpt>
      <trkpt lat="48.73297" lon="-3.41927">
        <ele>68.39</ele>
        <time>2013-05-24T15:30:35Z</time>
      </trkpt>
      <trkpt lat="48.73304" lon="-3.41935">
        <ele>68.39</ele>
        <time>2013-05-24T15:30:36Z</time>
      </trkpt>
      <trkpt lat="48.73332" lon="-3.41967">
        <ele>65.03</ele>
        <time>2013-05-24T15:30:40Z</time>
      </trkpt>
      <trkpt lat="48.73346" lon="-3.41986">
        <ele>64.07</ele>
        <time>2013-05-24T15:30:42Z</time>
      </trkpt>
      <trkpt lat="48.73352" lon="-3.41997">
        <ele>63.58</ele>
        <time>2013-05-24T15:30:43Z</time>
      </trkpt>
      <trkpt lat="48.73356" lon="-3.4201">
        <ele>63.58</ele>
        <time>2013-05-24T15:30:44Z</time>
      </trkpt>
      <trkpt lat="48.73359" lon="-3.42023">
        <ele>63.1</ele>
        <time>2013-05-24T15:30:45Z</time>
      </trkpt>
      <trkpt lat="48.73362" lon="-3.42037">
        <ele>63.58</ele>
        <time>2013-05-24T15:30:46Z</time>
      </trkpt>
      <trkpt lat="48.73363" lon="-3.4205">
        <ele>62.62</ele>
        <time>2013-05-24T15:30:47Z</time>
      </trkpt>
      <trkpt lat="48.73363" lon="-3.42062">
        <ele>62.62</ele>
        <time>2013-05-24T15:30:48Z</time>
      </trkpt>
      <trkpt lat="48.73362" lon="-3.42074">
        <ele>63.58</ele>
        <time>2013-05-24T15:30:49Z</time>
      </trkpt>
      <trkpt lat="48.73361" lon="-3.42086">
        <ele>64.07</ele>
        <time>2013-05-24T15:30:50Z</time>
      </trkpt>
      <trkpt lat="48.7336" lon="-3.42097">
        <ele>63.58</ele>
        <time>2013-05-24T15:30:51Z</time>
      </trkpt>
      <trkpt lat="48.73358" lon="-3.42107">
        <ele>63.58</ele>
        <time>2013-05-24T15:30:52Z</time>
      </trkpt>
      <trkpt lat="48.73342" lon="-3.42233">
        <ele>66.47</ele>
        <time>2013-05-24T15:31:05Z</time>
      </trkpt>
      <trkpt lat="48.73346" lon="-3.42351">
        <ele>69.83</ele>
        <time>2013-05-24T15:31:18Z</time>
      </trkpt>
      <trkpt lat="48.73346" lon="-3.42506">
        <ele>67.91</ele>
        <time>2013-05-24T15:31:34Z</time>
      </trkpt>
      <trkpt lat="48.73353" lon="-3.42615">
        <ele>64.55</ele>
        <time>2013-05-24T15:31:45Z</time>
      </trkpt>
      <trkpt lat="48.7336" lon="-3.42678">
        <ele>64.55</ele>
        <time>2013-05-24T15:31:51Z</time>
      </trkpt>
      <trkpt lat="48.73367" lon="-3.42806">
        <ele>65.99</ele>
        <time>2013-05-24T15:32:04Z</time>
      </trkpt>
      <trkpt lat="48.73368" lon="-3.42815">
        <ele>65.99</ele>
        <time>2013-05-24T15:32:05Z</time>
      </trkpt>
      <trkpt lat="48.73369" lon="-3.42825">
        <ele>66.47</ele>
        <time>2013-05-24T15:32:06Z</time>
      </trkpt>
      <trkpt lat="48.73374" lon="-3.42867">
        <ele>67.43</ele>
        <time>2013-05-24T15:32:11Z</time>
      </trkpt>
      <trkpt lat="48.73394" lon="-3.42984">
        <ele>67.43</ele>
        <time>2013-05-24T15:32:24Z</time>
      </trkpt>
      <trkpt lat="48.7339" lon="-3.43122">
        <ele>65.99</ele>
        <time>2013-05-24T15:32:38Z</time>
      </trkpt>
      <trkpt lat="48.7339" lon="-3.43238">
        <ele>62.62</ele>
        <time>2013-05-24T15:32:49Z</time>
      </trkpt>
      <trkpt lat="48.73391" lon="-3.4326">
        <ele>61.18</ele>
        <time>2013-05-24T15:32:51Z</time>
      </trkpt>
      <trkpt lat="48.73396" lon="-3.43292">
        <ele>61.18</ele>
        <time>2013-05-24T15:32:54Z</time>
      </trkpt>
      <trkpt lat="48.73399" lon="-3.43303">
        <ele>59.26</ele>
        <time>2013-05-24T15:32:55Z</time>
      </trkpt>
      <trkpt lat="48.734" lon="-3.43315">
        <ele>59.74</ele>
        <time>2013-05-24T15:32:56Z</time>
      </trkpt>
      <trkpt lat="48.734" lon="-3.43327">
        <ele>59.74</ele>
        <time>2013-05-24T15:32:57Z</time>
      </trkpt>
      <trkpt lat="48.73401" lon="-3.43339">
        <ele>58.3</ele>
        <time>2013-05-24T15:32:58Z</time>
      </trkpt>
      <trkpt lat="48.73402" lon="-3.43352">
        <ele>58.3</ele>
        <time>2013-05-24T15:32:59Z</time>
      </trkpt>
      <trkpt lat="48.73427" lon="-3.43539">
        <ele>55.41</ele>
        <time>2013-05-24T15:33:14Z</time>
      </trkpt>
      <trkpt lat="48.73431" lon="-3.4355">
        <ele>54.93</ele>
        <time>2013-05-24T15:33:15Z</time>
      </trkpt>
      <trkpt lat="48.73435" lon="-3.4356">
        <ele>54.45</ele>
        <time>2013-05-24T15:33:16Z</time>
      </trkpt>
      <trkpt lat="48.7344" lon="-3.4357">
        <ele>53.97</ele>
        <time>2013-05-24T15:33:17Z</time>
      </trkpt>
      <trkpt lat="48.73444" lon="-3.4358">
        <ele>53.97</ele>
        <time>2013-05-24T15:33:18Z</time>
      </trkpt>
      <trkpt lat="48.7345" lon="-3.43589">
        <ele>54.45</ele>
        <time>2013-05-24T15:33:19Z</time>
      </trkpt>
      <trkpt lat="48.73456" lon="-3.43596">
        <ele>53.49</ele>
        <time>2013-05-24T15:33:20Z</time>
      </trkpt>
      <trkpt lat="48.73468" lon="-3.43609">
        <ele>53.49</ele>
        <time>2013-05-24T15:33:22Z</time>
      </trkpt>
      <trkpt lat="48.73474" lon="-3.43614">
        <ele>53.97</ele>
        <time>2013-05-24T15:33:23Z</time>
      </trkpt>
      <trkpt lat="48.73481" lon="-3.43617">
        <ele>53.97</ele>
        <time>2013-05-24T15:33:24Z</time>
      </trkpt>
      <trkpt lat="48.73493" lon="-3.4362">
        <ele>53.49</ele>
        <time>2013-05-24T15:33:26Z</time>
      </trkpt>
      <trkpt lat="48.73498" lon="-3.43623">
        <ele>53.01</ele>
        <time>2013-05-24T15:33:27Z</time>
      </trkpt>
      <trkpt lat="48.73503" lon="-3.43628">
        <ele>53.01</ele>
        <time>2013-05-24T15:33:28Z</time>
      </trkpt>
      <trkpt lat="48.73506" lon="-3.43633">
        <ele>52.05</ele>
        <time>2013-05-24T15:33:29Z</time>
      </trkpt>
      <trkpt lat="48.73509" lon="-3.43638">
        <ele>51.57</ele>
        <time>2013-05-24T15:33:30Z</time>
      </trkpt>
      <trkpt lat="48.73514" lon="-3.43644">
        <ele>49.65</ele>
        <time>2013-05-24T15:33:33Z</time>
      </trkpt>
      <trkpt lat="48.73515" lon="-3.43646">
        <ele>49.65</ele>
        <time>2013-05-24T15:33:38Z</time>
      </trkpt>
      <trkpt lat="48.73517" lon="-3.43648">
        <ele>49.65</ele>
        <time>2013-05-24T15:33:39Z</time>
      </trkpt>
      <trkpt lat="48.73523" lon="-3.43652">
        <ele>50.61</ele>
        <time>2013-05-24T15:33:41Z</time>
      </trkpt>
      <trkpt lat="48.73533" lon="-3.43655">
        <ele>51.09</ele>
        <time>2013-05-24T15:33:43Z</time>
      </trkpt>
      <trkpt lat="48.73538" lon="-3.43659">
        <ele>51.09</ele>
        <time>2013-05-24T15:33:44Z</time>
      </trkpt>
      <trkpt lat="48.73542" lon="-3.43665">
        <ele>50.13</ele>
        <time>2013-05-24T15:33:45Z</time>
      </trkpt>
      <trkpt lat="48.73545" lon="-3.43672">
        <ele>50.13</ele>
        <time>2013-05-24T15:33:46Z</time>
      </trkpt>
      <trkpt lat="48.73548" lon="-3.43681">
        <ele>50.13</ele>
        <time>2013-05-24T15:33:47Z</time>
      </trkpt>
      <trkpt lat="48.73549" lon="-3.43691">
        <ele>49.16</ele>
        <time>2013-05-24T15:33:48Z</time>
      </trkpt>
      <trkpt lat="48.73548" lon="-3.43701">
        <ele>49.16</ele>
        <time>2013-05-24T15:33:49Z</time>
      </trkpt>
      <trkpt lat="48.73547" lon="-3.43711">
        <ele>48.68</ele>
        <time>2013-05-24T15:33:50Z</time>
      </trkpt>
      <trkpt lat="48.73543" lon="-3.43719">
        <ele>48.68</ele>
        <time>2013-05-24T15:33:51Z</time>
      </trkpt>
      <trkpt lat="48.73538" lon="-3.43726">
        <ele>48.68</ele>
        <time>2013-05-24T15:33:52Z</time>
      </trkpt>
      <trkpt lat="48.73532" lon="-3.4373">
        <ele>48.2</ele>
        <time>2013-05-24T15:33:53Z</time>
      </trkpt>
      <trkpt lat="48.73527" lon="-3.43733">
        <ele>48.68</ele>
        <time>2013-05-24T15:33:54Z</time>
      </trkpt>
      <trkpt lat="48.73521" lon="-3.43736">
        <ele>48.68</ele>
        <time>2013-05-24T15:33:55Z</time>
      </trkpt>
      <trkpt lat="48.73515" lon="-3.43739">
        <ele>49.16</ele>
        <time>2013-05-24T15:33:56Z</time>
      </trkpt>
      <trkpt lat="48.73509" lon="-3.43743">
        <ele>48.68</ele>
        <time>2013-05-24T15:33:57Z</time>
      </trkpt>
      <trkpt lat="48.73504" lon="-3.43748">
        <ele>49.16</ele>
        <time>2013-05-24T15:33:58Z</time>
      </trkpt>
      <trkpt lat="48.73499" lon="-3.43754">
        <ele>49.65</ele>
        <time>2013-05-24T15:33:59Z</time>
      </trkpt>
      <trkpt lat="48.73496" lon="-3.43763">
        <ele>49.65</ele>
        <time>2013-05-24T15:34:00Z</time>
      </trkpt>
      <trkpt lat="48.73492" lon="-3.43771">
        <ele>50.13</ele>
        <time>2013-05-24T15:34:01Z</time>
      </trkpt>
      <trkpt lat="48.73444" lon="-3.43891">
        <ele>46.76</ele>
        <time>2013-05-24T15:34:14Z</time>
      </trkpt>
      <trkpt lat="48.73442" lon="-3.43902">
        <ele>45.8</ele>
        <time>2013-05-24T15:34:15Z</time>
      </trkpt>
      <trkpt lat="48.7344" lon="-3.43913">
        <ele>45.32</ele>
        <time>2013-05-24T15:34:16Z</time>
      </trkpt>
      <trkpt lat="48.73429" lon="-3.44006">
        <ele>43.4</ele>
        <time>2013-05-24T15:34:24Z</time>
      </trkpt>
      <trkpt lat="48.73429" lon="-3.44017">
        <ele>43.4</ele>
        <time>2013-05-24T15:34:25Z</time>
      </trkpt>
      <trkpt lat="48.73429" lon="-3.44029">
        <ele>43.88</ele>
        <time>2013-05-24T15:34:26Z</time>
      </trkpt>
      <trkpt lat="48.73426" lon="-3.4404">
        <ele>42.92</ele>
        <time>2013-05-24T15:34:27Z</time>
      </trkpt>
      <trkpt lat="48.73422" lon="-3.4405">
        <ele>42.44</ele>
        <time>2013-05-24T15:34:28Z</time>
      </trkpt>
      <trkpt lat="48.73419" lon="-3.4406">
        <ele>41.95</ele>
        <time>2013-05-24T15:34:29Z</time>
      </trkpt>
      <trkpt lat="48.73416" lon="-3.4407">
        <ele>41.47</ele>
        <time>2013-05-24T15:34:30Z</time>
      </trkpt>
      <trkpt lat="48.73413" lon="-3.44081">
        <ele>41.95</ele>
        <time>2013-05-24T15:34:31Z</time>
      </trkpt>
      <trkpt lat="48.734" lon="-3.44142">
        <ele>38.11</ele>
        <time>2013-05-24T15:34:38Z</time>
      </trkpt>
      <trkpt lat="48.73394" lon="-3.44167">
        <ele>40.03</ele>
        <time>2013-05-24T15:34:41Z</time>
      </trkpt>
      <trkpt lat="48.73393" lon="-3.44176">
        <ele>39.55</ele>
        <time>2013-05-24T15:34:42Z</time>
      </trkpt>
      <trkpt lat="48.73392" lon="-3.44186">
        <ele>39.07</ele>
        <time>2013-05-24T15:34:43Z</time>
      </trkpt>
      <trkpt lat="48.73391" lon="-3.44196">
        <ele>39.07</ele>
        <time>2013-05-24T15:34:44Z</time>
      </trkpt>
      <trkpt lat="48.73391" lon="-3.44206">
        <ele>38.59</ele>
        <time>2013-05-24T15:34:45Z</time>
      </trkpt>
      <trkpt lat="48.73392" lon="-3.44216">
        <ele>38.59</ele>
        <time>2013-05-24T15:34:46Z</time>
      </trkpt>
      <trkpt lat="48.73407" lon="-3.4438">
        <ele>40.03</ele>
        <time>2013-05-24T15:35:03Z</time>
      </trkpt>
      <trkpt lat="48.73413" lon="-3.44405">
        <ele>39.07</ele>
        <time>2013-05-24T15:35:06Z</time>
      </trkpt>
      <trkpt lat="48.73416" lon="-3.44411">
        <ele>40.03</ele>
        <time>2013-05-24T15:35:07Z</time>
      </trkpt>
      <trkpt lat="48.73421" lon="-3.44414">
        <ele>40.03</ele>
        <time>2013-05-24T15:35:08Z</time>
      </trkpt>
      <trkpt lat="48.73427" lon="-3.44415">
        <ele>40.03</ele>
        <time>2013-05-24T15:35:09Z</time>
      </trkpt>
      <trkpt lat="48.73433" lon="-3.44415">
        <ele>38.11</ele>
        <time>2013-05-24T15:35:10Z</time>
      </trkpt>
      <trkpt lat="48.73439" lon="-3.44417">
        <ele>38.11</ele>
        <time>2013-05-24T15:35:11Z</time>
      </trkpt>
      <trkpt lat="48.73445" lon="-3.44419">
        <ele>38.59</ele>
        <time>2013-05-24T15:35:12Z</time>
      </trkpt>
      <trkpt lat="48.73451" lon="-3.44422">
        <ele>38.59</ele>
        <time>2013-05-24T15:35:13Z</time>
      </trkpt>
      <trkpt lat="48.73457" lon="-3.44423">
        <ele>37.15</ele>
        <time>2013-05-24T15:35:14Z</time>
      </trkpt>
      <trkpt lat="48.73464" lon="-3.44422">
        <ele>36.19</ele>
        <time>2013-05-24T15:35:15Z</time>
      </trkpt>
      <trkpt lat="48.7347" lon="-3.44419">
        <ele>35.71</ele>
        <time>2013-05-24T15:35:16Z</time>
      </trkpt>
      <trkpt lat="48.73558" lon="-3.44391">
        <ele>33.3</ele>
        <time>2013-05-24T15:35:28Z</time>
      </trkpt>
      <trkpt lat="48.73622" lon="-3.44401">
        <ele>29.94</ele>
        <time>2013-05-24T15:35:36Z</time>
      </trkpt>
      <trkpt lat="48.7363" lon="-3.44405">
        <ele>29.46</ele>
        <time>2013-05-24T15:35:37Z</time>
      </trkpt>
      <trkpt lat="48.73662" lon="-3.44424">
        <ele>26.09</ele>
        <time>2013-05-24T15:35:41Z</time>
      </trkpt>
      <trkpt lat="48.73684" lon="-3.44443">
        <ele>24.65</ele>
        <time>2013-05-24T15:35:44Z</time>
      </trkpt>
      <trkpt lat="48.7373" lon="-3.44482">
        <ele>23.21</ele>
        <time>2013-05-24T15:35:51Z</time>
      </trkpt>
      <trkpt lat="48.73736" lon="-3.44484">
        <ele>23.21</ele>
        <time>2013-05-24T15:35:52Z</time>
      </trkpt>
      <trkpt lat="48.73742" lon="-3.44485">
        <ele>24.17</ele>
        <time>2013-05-24T15:35:53Z</time>
      </trkpt>
      <trkpt lat="48.73748" lon="-3.44485">
        <ele>24.17</ele>
        <time>2013-05-24T15:35:54Z</time>
      </trkpt>
      <trkpt lat="48.73754" lon="-3.44482">
        <ele>24.65</ele>
        <time>2013-05-24T15:35:55Z</time>
      </trkpt>
      <trkpt lat="48.73758" lon="-3.44478">
        <ele>24.65</ele>
        <time>2013-05-24T15:35:56Z</time>
      </trkpt>
      <trkpt lat="48.73763" lon="-3.44474">
        <ele>24.65</ele>
        <time>2013-05-24T15:35:57Z</time>
      </trkpt>
      <trkpt lat="48.73767" lon="-3.44469">
        <ele>25.13</ele>
        <time>2013-05-24T15:35:58Z</time>
      </trkpt>
      <trkpt lat="48.73777" lon="-3.44455">
        <ele>26.09</ele>
        <time>2013-05-24T15:36:01Z</time>
      </trkpt>
      <trkpt lat="48.73784" lon="-3.44448">
        <ele>27.53</ele>
        <time>2013-05-24T15:36:03Z</time>
      </trkpt>
      <trkpt lat="48.73788" lon="-3.44445">
        <ele>27.53</ele>
        <time>2013-05-24T15:36:04Z</time>
      </trkpt>
      <trkpt lat="48.73792" lon="-3.44443">
        <ele>27.53</ele>
        <time>2013-05-24T15:36:05Z</time>
      </trkpt>
      <trkpt lat="48.73836" lon="-3.44426">
        <ele>31.38</ele>
        <time>2013-05-24T15:36:17Z</time>
      </trkpt>
      <trkpt lat="48.73849" lon="-3.44429">
        <ele>31.86</ele>
        <time>2013-05-24T15:36:20Z</time>
      </trkpt>
      <trkpt lat="48.73874" lon="-3.44443">
        <ele>33.78</ele>
        <time>2013-05-24T15:36:27Z</time>
      </trkpt>
      <trkpt lat="48.73911" lon="-3.44454">
        <ele>36.19</ele>
        <time>2013-05-24T15:36:36Z</time>
      </trkpt>
      <trkpt lat="48.73946" lon="-3.44451">
        <ele>36.67</ele>
        <time>2013-05-24T15:36:45Z</time>
      </trkpt>
      <trkpt lat="48.73951" lon="-3.44449">
        <ele>37.15</ele>
        <time>2013-05-24T15:36:46Z</time>
      </trkpt>
      <trkpt lat="48.73956" lon="-3.44447">
        <ele>38.59</ele>
        <time>2013-05-24T15:36:47Z</time>
      </trkpt>
      <trkpt lat="48.7396" lon="-3.44446">
        <ele>39.55</ele>
        <time>2013-05-24T15:36:48Z</time>
      </trkpt>
      <trkpt lat="48.73965" lon="-3.44446">
        <ele>39.55</ele>
        <time>2013-05-24T15:36:49Z</time>
      </trkpt>
      <trkpt lat="48.7397" lon="-3.44447">
        <ele>39.55</ele>
        <time>2013-05-24T15:36:50Z</time>
      </trkpt>
      <trkpt lat="48.73974" lon="-3.44449">
        <ele>40.51</ele>
        <time>2013-05-24T15:36:51Z</time>
      </trkpt>
      <trkpt lat="48.73978" lon="-3.44453">
        <ele>39.55</ele>
        <time>2013-05-24T15:36:52Z</time>
      </trkpt>
      <trkpt lat="48.73981" lon="-3.44457">
        <ele>39.55</ele>
        <time>2013-05-24T15:36:53Z</time>
      </trkpt>
      <trkpt lat="48.73985" lon="-3.44462">
        <ele>40.03</ele>
        <time>2013-05-24T15:36:54Z</time>
      </trkpt>
      <trkpt lat="48.73991" lon="-3.44471">
        <ele>39.07</ele>
        <time>2013-05-24T15:36:56Z</time>
      </trkpt>
      <trkpt lat="48.73995" lon="-3.44475">
        <ele>38.59</ele>
        <time>2013-05-24T15:36:57Z</time>
      </trkpt>
      <trkpt lat="48.74" lon="-3.44477">
        <ele>39.07</ele>
        <time>2013-05-24T15:36:58Z</time>
      </trkpt>
      <trkpt lat="48.74069" lon="-3.44503">
        <ele>39.55</ele>
        <time>2013-05-24T15:37:14Z</time>
      </trkpt>
      <trkpt lat="48.74127" lon="-3.44533">
        <ele>42.92</ele>
        <time>2013-05-24T15:37:29Z</time>
      </trkpt>
      <trkpt lat="48.74191" lon="-3.44562">
        <ele>43.4</ele>
        <time>2013-05-24T15:37:45Z</time>
      </trkpt>
      <trkpt lat="48.74249" lon="-3.44592">
        <ele>45.8</ele>
        <time>2013-05-24T15:38:00Z</time>
      </trkpt>
      <trkpt lat="48.7426" lon="-3.44597">
        <ele>45.8</ele>
        <time>2013-05-24T15:38:03Z</time>
      </trkpt>
      <trkpt lat="48.74263" lon="-3.44602">
        <ele>46.28</ele>
        <time>2013-05-24T15:38:04Z</time>
      </trkpt>
      <trkpt lat="48.74265" lon="-3.44607">
        <ele>46.76</ele>
        <time>2013-05-24T15:38:05Z</time>
      </trkpt>
      <trkpt lat="48.74266" lon="-3.44614">
        <ele>46.76</ele>
        <time>2013-05-24T15:38:06Z</time>
      </trkpt>
      <trkpt lat="48.74267" lon="-3.44621">
        <ele>46.76</ele>
        <time>2013-05-24T15:38:07Z</time>
      </trkpt>
      <trkpt lat="48.74267" lon="-3.44627">
        <ele>46.76</ele>
        <time>2013-05-24T15:38:08Z</time>
      </trkpt>
      <trkpt lat="48.74266" lon="-3.44633">
        <ele>47.24</ele>
        <time>2013-05-24T15:38:09Z</time>
      </trkpt>
      <trkpt lat="48.74267" lon="-3.44639">
        <ele>48.2</ele>
        <time>2013-05-24T15:38:10Z</time>
      </trkpt>
      <trkpt lat="48.74267" lon="-3.44645">
        <ele>48.2</ele>
        <time>2013-05-24T15:38:11Z</time>
      </trkpt>
      <trkpt lat="48.74277" lon="-3.44751">
        <ele>50.61</ele>
        <time>2013-05-24T15:38:28Z</time>
      </trkpt>
      <trkpt lat="48.74276" lon="-3.44825">
        <ele>53.97</ele>
        <time>2013-05-24T15:38:40Z</time>
      </trkpt>
      <trkpt lat="48.74275" lon="-3.44893">
        <ele>55.89</ele>
        <time>2013-05-24T15:38:52Z</time>
      </trkpt>
      <trkpt lat="48.74275" lon="-3.44912">
        <ele>57.34</ele>
        <time>2013-05-24T15:38:55Z</time>
      </trkpt>
      <trkpt lat="48.74274" lon="-3.44961">
        <ele>58.3</ele>
        <time>2013-05-24T15:39:03Z</time>
      </trkpt>
      <trkpt lat="48.74274" lon="-3.45063">
        <ele>61.66</ele>
        <time>2013-05-24T15:39:20Z</time>
      </trkpt>
      <trkpt lat="48.74279" lon="-3.45096">
        <ele>63.58</ele>
        <time>2013-05-24T15:39:26Z</time>
      </trkpt>
      <trkpt lat="48.74282" lon="-3.45111">
        <ele>65.03</ele>
        <time>2013-05-24T15:39:29Z</time>
      </trkpt>
      <trkpt lat="48.74285" lon="-3.45122">
        <ele>65.03</ele>
        <time>2013-05-24T15:39:31Z</time>
      </trkpt>
      <trkpt lat="48.74289" lon="-3.45133">
        <ele>65.51</ele>
        <time>2013-05-24T15:39:33Z</time>
      </trkpt>
      <trkpt lat="48.74323" lon="-3.45187">
        <ele>68.39</ele>
        <time>2013-05-24T15:39:46Z</time>
      </trkpt>
      <trkpt lat="48.74336" lon="-3.45198">
        <ele>69.83</ele>
        <time>2013-05-24T15:39:50Z</time>
      </trkpt>
      <trkpt lat="48.74374" lon="-3.45218">
        <ele>70.79</ele>
        <time>2013-05-24T15:40:02Z</time>
      </trkpt>
      <trkpt lat="48.744" lon="-3.4523">
        <ele>73.2</ele>
        <time>2013-05-24T15:40:15Z</time>
      </trkpt>
      <trkpt lat="48.744" lon="-3.4523">
        <ele>73.2</ele>
        <time>2013-05-24T15:40:16Z</time>
      </trkpt>
      <trkpt lat="48.74399" lon="-3.4523">
        <ele>71.27</ele>
        <time>2013-05-24T15:40:21Z</time>
      </trkpt>
      <trkpt lat="48.74405" lon="-3.45235">
        <ele>72.72</ele>
        <time>2013-05-24T15:40:24Z</time>
      </trkpt>
      <trkpt lat="48.74407" lon="-3.45237">
        <ele>71.76</ele>
        <time>2013-05-24T15:40:25Z</time>
      </trkpt>
      <trkpt lat="48.7441" lon="-3.45241">
        <ele>72.24</ele>
        <time>2013-05-24T15:40:26Z</time>
      </trkpt>
      <trkpt lat="48.74416" lon="-3.4525">
        <ele>74.16</ele>
        <time>2013-05-24T15:40:28Z</time>
      </trkpt>
      <trkpt lat="48.74427" lon="-3.45263">
        <ele>70.79</ele>
        <time>2013-05-24T15:40:31Z</time>
      </trkpt>
      <trkpt lat="48.74454" lon="-3.45296">
        <ele>68.39</ele>
        <time>2013-05-24T15:40:37Z</time>
      </trkpt>
      <trkpt lat="48.74488" lon="-3.45341">
        <ele>66.47</ele>
        <time>2013-05-24T15:40:43Z</time>
      </trkpt>
      <trkpt lat="48.74508" lon="-3.45367">
        <ele>62.62</ele>
        <time>2013-05-24T15:40:46Z</time>
      </trkpt>
      <trkpt lat="48.7453" lon="-3.45398">
        <ele>60.7</ele>
        <time>2013-05-24T15:40:49Z</time>
      </trkpt>
      <trkpt lat="48.74542" lon="-3.45421">
        <ele>60.7</ele>
        <time>2013-05-24T15:40:51Z</time>
      </trkpt>
      <trkpt lat="48.74563" lon="-3.45465">
        <ele>62.62</ele>
        <time>2013-05-24T15:40:56Z</time>
      </trkpt>
      <trkpt lat="48.74584" lon="-3.45496">
        <ele>64.55</ele>
        <time>2013-05-24T15:41:02Z</time>
      </trkpt>
      <trkpt lat="48.74591" lon="-3.45504">
        <ele>64.55</ele>
        <time>2013-05-24T15:41:04Z</time>
      </trkpt>
      <trkpt lat="48.74595" lon="-3.45505">
        <ele>65.03</ele>
        <time>2013-05-24T15:41:05Z</time>
      </trkpt>
      <trkpt lat="48.74599" lon="-3.45503">
        <ele>65.51</ele>
        <time>2013-05-24T15:41:06Z</time>
      </trkpt>
      <trkpt lat="48.74602" lon="-3.45499">
        <ele>65.99</ele>
        <time>2013-05-24T15:41:07Z</time>
      </trkpt>
      <trkpt lat="48.74605" lon="-3.45494">
        <ele>66.47</ele>
        <time>2013-05-24T15:41:08Z</time>
      </trkpt>
      <trkpt lat="48.74607" lon="-3.45489">
        <ele>67.91</ele>
        <time>2013-05-24T15:41:09Z</time>
      </trkpt>
      <trkpt lat="48.7461" lon="-3.45484">
        <ele>67.43</ele>
        <time>2013-05-24T15:41:10Z</time>
      </trkpt>
      <trkpt lat="48.74614" lon="-3.45474">
        <ele>67.91</ele>
        <time>2013-05-24T15:41:12Z</time>
      </trkpt>
      <trkpt lat="48.74617" lon="-3.45469">
        <ele>68.39</ele>
        <time>2013-05-24T15:41:13Z</time>
      </trkpt>
      <trkpt lat="48.7462" lon="-3.45466">
        <ele>68.87</ele>
        <time>2013-05-24T15:41:14Z</time>
      </trkpt>
      <trkpt lat="48.74624" lon="-3.45465">
        <ele>69.35</ele>
        <time>2013-05-24T15:41:15Z</time>
      </trkpt>
      <trkpt lat="48.74629" lon="-3.45467">
        <ele>69.35</ele>
        <time>2013-05-24T15:41:16Z</time>
      </trkpt>
      <trkpt lat="48.74632" lon="-3.4547">
        <ele>69.83</ele>
        <time>2013-05-24T15:41:17Z</time>
      </trkpt>
      <trkpt lat="48.74668" lon="-3.45506">
        <ele>72.24</ele>
        <time>2013-05-24T15:41:30Z</time>
      </trkpt>
      <trkpt lat="48.74682" lon="-3.45519">
        <ele>73.68</ele>
        <time>2013-05-24T15:41:36Z</time>
      </trkpt>
      <trkpt lat="48.74684" lon="-3.45518">
        <ele>73.68</ele>
        <time>2013-05-24T15:41:37Z</time>
      </trkpt>
      <trkpt lat="48.74687" lon="-3.45516">
        <ele>73.68</ele>
        <time>2013-05-24T15:41:38Z</time>
      </trkpt>
      <trkpt lat="48.74689" lon="-3.45514">
        <ele>73.68</ele>
        <time>2013-05-24T15:41:39Z</time>
      </trkpt>
      <trkpt lat="48.7469" lon="-3.45511">
        <ele>74.16</ele>
        <time>2013-05-24T15:41:40Z</time>
      </trkpt>
      <trkpt lat="48.74691" lon="-3.45507">
        <ele>73.68</ele>
        <time>2013-05-24T15:41:41Z</time>
      </trkpt>
      <trkpt lat="48.74692" lon="-3.45505">
        <ele>74.16</ele>
        <time>2013-05-24T15:41:42Z</time>
      </trkpt>
      <trkpt lat="48.74692" lon="-3.45503">
        <ele>74.16</ele>
        <time>2013-05-24T15:41:43Z</time>
      </trkpt>
      <trkpt lat="48.74694" lon="-3.455">
        <ele>74.16</ele>
        <time>2013-05-24T15:41:54Z</time>
      </trkpt>
    </trkseg>
  </trk>
</gpx>